<?xml version="1.0" encoding="UTF-8" standalone="no" ?>
<gpx xmlns="http://www.topografix.com/GPX/1/1" xmlns:xsi="http://www.w3.org/2001/XMLSchema-instance" xsi:schemaLocation="http://www.topografix.com/GPX/1/1 http://www.topografix.com/GPX/1/1/gpx.xsd" version="1.1" creator="VisuGPX - https://www.visugpx.com">
  <metadata>
    <name>La Ducambanderie (raccourci) avec Babyboy</name>
    <desc><![CDATA[Une bonne moyenne en faisant deux grands trots et un autre plus petit, et deux galops...]]></desc>
  </metadata>
  <trk>
    <name><![CDATA[Saint-Léger-en-Yvelines Autre]]></name>
    <trkseg>
      <trkpt lat="48.70749" lon="1.75362">
        <ele>174</ele>
        <time>2015-06-15T08:02:26.000Z</time>
      </trkpt>
      <trkpt lat="48.7075" lon="1.75361">
        <ele>174</ele>
        <time>2015-06-15T08:02:27.000Z</time>
      </trkpt>
      <trkpt lat="48.70755" lon="1.75353">
        <ele>174</ele>
        <time>2015-06-15T08:02:35.000Z</time>
      </trkpt>
      <trkpt lat="48.70758" lon="1.75344">
        <ele>174</ele>
        <time>2015-06-15T08:02:42.000Z</time>
      </trkpt>
      <trkpt lat="48.70761" lon="1.75336">
        <ele>174</ele>
        <time>2015-06-15T08:02:47.000Z</time>
      </trkpt>
      <trkpt lat="48.70764" lon="1.7533">
        <ele>174</ele>
        <time>2015-06-15T08:02:51.000Z</time>
      </trkpt>
      <trkpt lat="48.70765" lon="1.75327">
        <ele>174</ele>
        <time>2015-06-15T08:02:53.000Z</time>
      </trkpt>
      <trkpt lat="48.70766" lon="1.75323">
        <ele>174</ele>
        <time>2015-06-15T08:02:55.000Z</time>
      </trkpt>
      <trkpt lat="48.70769" lon="1.75317">
        <ele>174</ele>
        <time>2015-06-15T08:03:01.000Z</time>
      </trkpt>
      <trkpt lat="48.70769" lon="1.75317">
        <ele>174</ele>
        <time>2015-06-15T08:03:02.000Z</time>
      </trkpt>
      <trkpt lat="48.70776" lon="1.75301">
        <ele>174</ele>
        <time>2015-06-15T08:03:22.000Z</time>
      </trkpt>
      <trkpt lat="48.70779" lon="1.75293">
        <ele>174</ele>
        <time>2015-06-15T08:03:26.000Z</time>
      </trkpt>
      <trkpt lat="48.70786" lon="1.75277">
        <ele>174.3</ele>
        <time>2015-06-15T08:03:36.000Z</time>
      </trkpt>
      <trkpt lat="48.70792" lon="1.75261">
        <ele>174.5</ele>
        <time>2015-06-15T08:03:46.000Z</time>
      </trkpt>
      <trkpt lat="48.70799" lon="1.75245">
        <ele>174.8</ele>
        <time>2015-06-15T08:03:56.000Z</time>
      </trkpt>
      <trkpt lat="48.70807" lon="1.75227">
        <ele>175</ele>
        <time>2015-06-15T08:04:07.000Z</time>
      </trkpt>
      <trkpt lat="48.70814" lon="1.75212">
        <ele>175</ele>
        <time>2015-06-15T08:04:16.000Z</time>
      </trkpt>
      <trkpt lat="48.70823" lon="1.75194">
        <ele>175</ele>
        <time>2015-06-15T08:04:27.000Z</time>
      </trkpt>
      <trkpt lat="48.7083" lon="1.75178">
        <ele>175</ele>
        <time>2015-06-15T08:04:37.000Z</time>
      </trkpt>
      <trkpt lat="48.70838" lon="1.75162">
        <ele>175</ele>
        <time>2015-06-15T08:04:47.000Z</time>
      </trkpt>
      <trkpt lat="48.70844" lon="1.75147">
        <ele>175</ele>
        <time>2015-06-15T08:04:56.000Z</time>
      </trkpt>
      <trkpt lat="48.70851" lon="1.75134">
        <ele>175</ele>
        <time>2015-06-15T08:05:05.000Z</time>
      </trkpt>
      <trkpt lat="48.70858" lon="1.7512">
        <ele>175</ele>
        <time>2015-06-15T08:05:14.000Z</time>
      </trkpt>
      <trkpt lat="48.70864" lon="1.75103">
        <ele>175</ele>
        <time>2015-06-15T08:05:24.000Z</time>
      </trkpt>
      <trkpt lat="48.70871" lon="1.75089">
        <ele>175</ele>
        <time>2015-06-15T08:05:33.000Z</time>
      </trkpt>
      <trkpt lat="48.7088" lon="1.75072">
        <ele>175</ele>
        <time>2015-06-15T08:05:44.000Z</time>
      </trkpt>
      <trkpt lat="48.70888" lon="1.75055">
        <ele>175</ele>
        <time>2015-06-15T08:05:55.000Z</time>
      </trkpt>
      <trkpt lat="48.70895" lon="1.75039">
        <ele>175.1</ele>
        <time>2015-06-15T08:06:05.000Z</time>
      </trkpt>
      <trkpt lat="48.70903" lon="1.75022">
        <ele>175.4</ele>
        <time>2015-06-15T08:06:16.000Z</time>
      </trkpt>
      <trkpt lat="48.70909" lon="1.75007">
        <ele>175.2</ele>
        <time>2015-06-15T08:06:26.000Z</time>
      </trkpt>
      <trkpt lat="48.70911" lon="1.75002">
        <ele>175.1</ele>
        <time>2015-06-15T08:06:29.000Z</time>
      </trkpt>
      <trkpt lat="48.70914" lon="1.74995">
        <ele>175</ele>
        <time>2015-06-15T08:06:33.000Z</time>
      </trkpt>
      <trkpt lat="48.7092" lon="1.74982">
        <ele>175.1</ele>
        <time>2015-06-15T08:06:42.000Z</time>
      </trkpt>
      <trkpt lat="48.70929" lon="1.74965">
        <ele>175.6</ele>
        <time>2015-06-15T08:06:54.000Z</time>
      </trkpt>
      <trkpt lat="48.70935" lon="1.74951">
        <ele>175.9</ele>
        <time>2015-06-15T08:07:03.000Z</time>
      </trkpt>
      <trkpt lat="48.70944" lon="1.74939">
        <ele>176</ele>
        <time>2015-06-15T08:07:13.000Z</time>
      </trkpt>
      <trkpt lat="48.70952" lon="1.7493">
        <ele>176</ele>
        <time>2015-06-15T08:07:21.000Z</time>
      </trkpt>
      <trkpt lat="48.70959" lon="1.7492">
        <ele>176</ele>
        <time>2015-06-15T08:07:29.000Z</time>
      </trkpt>
      <trkpt lat="48.7096" lon="1.74918">
        <ele>176</ele>
        <time>2015-06-15T08:07:30.000Z</time>
      </trkpt>
      <trkpt lat="48.70965" lon="1.74912">
        <ele>176</ele>
        <time>2015-06-15T08:07:36.000Z</time>
      </trkpt>
      <trkpt lat="48.70971" lon="1.74907">
        <ele>176</ele>
        <time>2015-06-15T08:07:41.000Z</time>
      </trkpt>
      <trkpt lat="48.7098" lon="1.74896">
        <ele>176</ele>
        <time>2015-06-15T08:07:51.000Z</time>
      </trkpt>
      <trkpt lat="48.70981" lon="1.74896">
        <ele>176</ele>
        <time>2015-06-15T08:07:52.000Z</time>
      </trkpt>
      <trkpt lat="48.70986" lon="1.74892">
        <ele>176</ele>
        <time>2015-06-15T08:07:56.000Z</time>
      </trkpt>
      <trkpt lat="48.7099" lon="1.74886">
        <ele>176</ele>
        <time>2015-06-15T08:08:01.000Z</time>
      </trkpt>
      <trkpt lat="48.70997" lon="1.74875">
        <ele>176</ele>
        <time>2015-06-15T08:08:09.000Z</time>
      </trkpt>
      <trkpt lat="48.71007" lon="1.7486">
        <ele>176</ele>
        <time>2015-06-15T08:08:19.000Z</time>
      </trkpt>
      <trkpt lat="48.7101" lon="1.74856">
        <ele>176</ele>
        <time>2015-06-15T08:08:22.000Z</time>
      </trkpt>
      <trkpt lat="48.71012" lon="1.7484">
        <ele>176</ele>
        <time>2015-06-15T08:08:30.000Z</time>
      </trkpt>
      <trkpt lat="48.71011" lon="1.74832">
        <ele>176</ele>
        <time>2015-06-15T08:08:34.000Z</time>
      </trkpt>
      <trkpt lat="48.71014" lon="1.74833">
        <ele>176</ele>
        <time>2015-06-15T08:08:43.000Z</time>
      </trkpt>
      <trkpt lat="48.71014" lon="1.74835">
        <ele>176</ele>
        <time>2015-06-15T08:08:47.000Z</time>
      </trkpt>
      <trkpt lat="48.71016" lon="1.74831">
        <ele>176</ele>
        <time>2015-06-15T08:09:43.000Z</time>
      </trkpt>
      <trkpt lat="48.71015" lon="1.7483">
        <ele>176</ele>
        <time>2015-06-15T08:09:44.000Z</time>
      </trkpt>
      <trkpt lat="48.71001" lon="1.74819">
        <ele>176</ele>
        <time>2015-06-15T08:09:50.000Z</time>
      </trkpt>
      <trkpt lat="48.70993" lon="1.74811">
        <ele>176</ele>
        <time>2015-06-15T08:09:56.000Z</time>
      </trkpt>
      <trkpt lat="48.70984" lon="1.748">
        <ele>176</ele>
        <time>2015-06-15T08:10:04.000Z</time>
      </trkpt>
      <trkpt lat="48.70974" lon="1.74787">
        <ele>176</ele>
        <time>2015-06-15T08:10:14.000Z</time>
      </trkpt>
      <trkpt lat="48.70966" lon="1.74777">
        <ele>176</ele>
        <time>2015-06-15T08:10:23.000Z</time>
      </trkpt>
      <trkpt lat="48.70956" lon="1.74764">
        <ele>176</ele>
        <time>2015-06-15T08:10:32.000Z</time>
      </trkpt>
      <trkpt lat="48.70949" lon="1.74753">
        <ele>176</ele>
        <time>2015-06-15T08:10:40.000Z</time>
      </trkpt>
      <trkpt lat="48.70948" lon="1.74752">
        <ele>176</ele>
        <time>2015-06-15T08:10:41.000Z</time>
      </trkpt>
      <trkpt lat="48.70939" lon="1.74741">
        <ele>176</ele>
        <time>2015-06-15T08:10:50.000Z</time>
      </trkpt>
      <trkpt lat="48.70932" lon="1.74732">
        <ele>176</ele>
        <time>2015-06-15T08:10:57.000Z</time>
      </trkpt>
      <trkpt lat="48.70927" lon="1.74724">
        <ele>176</ele>
        <time>2015-06-15T08:11:02.000Z</time>
      </trkpt>
      <trkpt lat="48.70917" lon="1.7471">
        <ele>175.6</ele>
        <time>2015-06-15T08:11:12.000Z</time>
      </trkpt>
      <trkpt lat="48.70907" lon="1.74697">
        <ele>175.4</ele>
        <time>2015-06-15T08:11:21.000Z</time>
      </trkpt>
      <trkpt lat="48.70902" lon="1.7469">
        <ele>175.5</ele>
        <time>2015-06-15T08:11:27.000Z</time>
      </trkpt>
      <trkpt lat="48.70894" lon="1.74679">
        <ele>175.5</ele>
        <time>2015-06-15T08:11:35.000Z</time>
      </trkpt>
      <trkpt lat="48.70883" lon="1.74665">
        <ele>175.2</ele>
        <time>2015-06-15T08:11:45.000Z</time>
      </trkpt>
      <trkpt lat="48.70872" lon="1.74652">
        <ele>175.5</ele>
        <time>2015-06-15T08:11:55.000Z</time>
      </trkpt>
      <trkpt lat="48.70864" lon="1.7464">
        <ele>175.1</ele>
        <time>2015-06-15T08:12:04.000Z</time>
      </trkpt>
      <trkpt lat="48.70854" lon="1.74624">
        <ele>175.7</ele>
        <time>2015-06-15T08:12:15.000Z</time>
      </trkpt>
      <trkpt lat="48.70844" lon="1.7461">
        <ele>176</ele>
        <time>2015-06-15T08:12:26.000Z</time>
      </trkpt>
      <trkpt lat="48.70831" lon="1.74594">
        <ele>176</ele>
        <time>2015-06-15T08:12:38.000Z</time>
      </trkpt>
      <trkpt lat="48.70822" lon="1.74583">
        <ele>176</ele>
        <time>2015-06-15T08:12:47.000Z</time>
      </trkpt>
      <trkpt lat="48.70813" lon="1.74571">
        <ele>176</ele>
        <time>2015-06-15T08:12:57.000Z</time>
      </trkpt>
      <trkpt lat="48.70804" lon="1.74563">
        <ele>176</ele>
        <time>2015-06-15T08:13:05.000Z</time>
      </trkpt>
      <trkpt lat="48.70796" lon="1.74549">
        <ele>176.3</ele>
        <time>2015-06-15T08:13:14.000Z</time>
      </trkpt>
      <trkpt lat="48.70786" lon="1.74538">
        <ele>176.3</ele>
        <time>2015-06-15T08:13:23.000Z</time>
      </trkpt>
      <trkpt lat="48.70777" lon="1.74526">
        <ele>176</ele>
        <time>2015-06-15T08:13:33.000Z</time>
      </trkpt>
      <trkpt lat="48.70765" lon="1.74512">
        <ele>176</ele>
        <time>2015-06-15T08:13:45.000Z</time>
      </trkpt>
      <trkpt lat="48.70755" lon="1.745">
        <ele>176</ele>
        <time>2015-06-15T08:13:55.000Z</time>
      </trkpt>
      <trkpt lat="48.70745" lon="1.74489">
        <ele>176</ele>
        <time>2015-06-15T08:14:05.000Z</time>
      </trkpt>
      <trkpt lat="48.70737" lon="1.74477">
        <ele>176</ele>
        <time>2015-06-15T08:14:14.000Z</time>
      </trkpt>
      <trkpt lat="48.70728" lon="1.74464">
        <ele>176</ele>
        <time>2015-06-15T08:14:24.000Z</time>
      </trkpt>
      <trkpt lat="48.70727" lon="1.74462">
        <ele>176</ele>
        <time>2015-06-15T08:14:25.000Z</time>
      </trkpt>
      <trkpt lat="48.70732" lon="1.74451">
        <ele>176</ele>
        <time>2015-06-15T08:14:32.000Z</time>
      </trkpt>
      <trkpt lat="48.70745" lon="1.74443">
        <ele>176</ele>
        <time>2015-06-15T08:14:42.000Z</time>
      </trkpt>
      <trkpt lat="48.70754" lon="1.74437">
        <ele>176</ele>
        <time>2015-06-15T08:14:51.000Z</time>
      </trkpt>
      <trkpt lat="48.70766" lon="1.74432">
        <ele>176</ele>
        <time>2015-06-15T08:15:00.000Z</time>
      </trkpt>
      <trkpt lat="48.70778" lon="1.74427">
        <ele>176</ele>
        <time>2015-06-15T08:15:09.000Z</time>
      </trkpt>
      <trkpt lat="48.7079" lon="1.74422">
        <ele>176</ele>
        <time>2015-06-15T08:15:19.000Z</time>
      </trkpt>
      <trkpt lat="48.70797" lon="1.74418">
        <ele>176</ele>
        <time>2015-06-15T08:15:27.000Z</time>
      </trkpt>
      <trkpt lat="48.70808" lon="1.74409">
        <ele>176</ele>
        <time>2015-06-15T08:15:38.000Z</time>
      </trkpt>
      <trkpt lat="48.70817" lon="1.74403">
        <ele>176</ele>
        <time>2015-06-15T08:15:47.000Z</time>
      </trkpt>
      <trkpt lat="48.70825" lon="1.74397">
        <ele>176</ele>
        <time>2015-06-15T08:15:55.000Z</time>
      </trkpt>
      <trkpt lat="48.70826" lon="1.74396">
        <ele>176</ele>
        <time>2015-06-15T08:15:56.000Z</time>
      </trkpt>
      <trkpt lat="48.70828" lon="1.74395">
        <ele>176</ele>
        <time>2015-06-15T08:15:58.000Z</time>
      </trkpt>
      <trkpt lat="48.70839" lon="1.74382">
        <ele>176</ele>
        <time>2015-06-15T08:16:49.000Z</time>
      </trkpt>
      <trkpt lat="48.70839" lon="1.74382">
        <ele>176</ele>
        <time>2015-06-15T08:16:50.000Z</time>
      </trkpt>
      <trkpt lat="48.70839" lon="1.74382">
        <ele>176</ele>
        <time>2015-06-15T08:16:51.000Z</time>
      </trkpt>
      <trkpt lat="48.70922" lon="1.74176">
        <ele>177</ele>
        <time>2015-06-15T08:40:55.000Z</time>
      </trkpt>
      <trkpt lat="48.70924" lon="1.74169">
        <ele>177</ele>
        <time>2015-06-15T08:40:59.000Z</time>
      </trkpt>
      <trkpt lat="48.70926" lon="1.74165">
        <ele>177</ele>
        <time>2015-06-15T08:41:05.000Z</time>
      </trkpt>
      <trkpt lat="48.7093" lon="1.74157">
        <ele>177</ele>
        <time>2015-06-15T08:41:09.000Z</time>
      </trkpt>
      <trkpt lat="48.70931" lon="1.74156">
        <ele>177</ele>
        <time>2015-06-15T08:41:10.000Z</time>
      </trkpt>
      <trkpt lat="48.70935" lon="1.74141">
        <ele>177</ele>
        <time>2015-06-15T08:41:17.000Z</time>
      </trkpt>
      <trkpt lat="48.70938" lon="1.74132">
        <ele>177</ele>
        <time>2015-06-15T08:41:23.000Z</time>
      </trkpt>
      <trkpt lat="48.70941" lon="1.74119">
        <ele>177</ele>
        <time>2015-06-15T08:41:30.000Z</time>
      </trkpt>
      <trkpt lat="48.70942" lon="1.74117">
        <ele>177</ele>
        <time>2015-06-15T08:41:31.000Z</time>
      </trkpt>
      <trkpt lat="48.70947" lon="1.74099">
        <ele>177</ele>
        <time>2015-06-15T08:41:39.000Z</time>
      </trkpt>
      <trkpt lat="48.70947" lon="1.74084">
        <ele>177</ele>
        <time>2015-06-15T08:41:46.000Z</time>
      </trkpt>
      <trkpt lat="48.70947" lon="1.74077">
        <ele>177</ele>
        <time>2015-06-15T08:41:49.000Z</time>
      </trkpt>
      <trkpt lat="48.70949" lon="1.74071">
        <ele>177.1</ele>
        <time>2015-06-15T08:41:53.000Z</time>
      </trkpt>
      <trkpt lat="48.70953" lon="1.74062">
        <ele>177.2</ele>
        <time>2015-06-15T08:41:58.000Z</time>
      </trkpt>
      <trkpt lat="48.70954" lon="1.7405">
        <ele>177.5</ele>
        <time>2015-06-15T08:42:04.000Z</time>
      </trkpt>
      <trkpt lat="48.70954" lon="1.74046">
        <ele>177.6</ele>
        <time>2015-06-15T08:42:07.000Z</time>
      </trkpt>
      <trkpt lat="48.7096" lon="1.74036">
        <ele>177.9</ele>
        <time>2015-06-15T08:42:14.000Z</time>
      </trkpt>
      <trkpt lat="48.70966" lon="1.74025">
        <ele>178</ele>
        <time>2015-06-15T08:42:21.000Z</time>
      </trkpt>
      <trkpt lat="48.70969" lon="1.74012">
        <ele>178</ele>
        <time>2015-06-15T08:42:28.000Z</time>
      </trkpt>
      <trkpt lat="48.7097" lon="1.74">
        <ele>178</ele>
        <time>2015-06-15T08:42:34.000Z</time>
      </trkpt>
      <trkpt lat="48.70971" lon="1.73989">
        <ele>178</ele>
        <time>2015-06-15T08:42:40.000Z</time>
      </trkpt>
      <trkpt lat="48.70976" lon="1.73971">
        <ele>178</ele>
        <time>2015-06-15T08:42:49.000Z</time>
      </trkpt>
      <trkpt lat="48.7098" lon="1.73955">
        <ele>177.6</ele>
        <time>2015-06-15T08:42:57.000Z</time>
      </trkpt>
      <trkpt lat="48.70983" lon="1.7394">
        <ele>177.5</ele>
        <time>2015-06-15T08:43:04.000Z</time>
      </trkpt>
      <trkpt lat="48.70986" lon="1.73927">
        <ele>177.8</ele>
        <time>2015-06-15T08:43:11.000Z</time>
      </trkpt>
      <trkpt lat="48.70989" lon="1.73912">
        <ele>178</ele>
        <time>2015-06-15T08:43:19.000Z</time>
      </trkpt>
      <trkpt lat="48.70992" lon="1.73901">
        <ele>178</ele>
        <time>2015-06-15T08:43:25.000Z</time>
      </trkpt>
      <trkpt lat="48.70993" lon="1.73898">
        <ele>178</ele>
        <time>2015-06-15T08:43:27.000Z</time>
      </trkpt>
      <trkpt lat="48.70995" lon="1.73892">
        <ele>178</ele>
        <time>2015-06-15T08:43:31.000Z</time>
      </trkpt>
      <trkpt lat="48.70999" lon="1.7388">
        <ele>178</ele>
        <time>2015-06-15T08:43:38.000Z</time>
      </trkpt>
      <trkpt lat="48.71001" lon="1.73866">
        <ele>178</ele>
        <time>2015-06-15T08:43:44.000Z</time>
      </trkpt>
      <trkpt lat="48.71005" lon="1.73857">
        <ele>177.8</ele>
        <time>2015-06-15T08:43:50.000Z</time>
      </trkpt>
      <trkpt lat="48.71007" lon="1.73833">
        <ele>177.8</ele>
        <time>2015-06-15T08:44:00.000Z</time>
      </trkpt>
      <trkpt lat="48.71008" lon="1.73818">
        <ele>177.9</ele>
        <time>2015-06-15T08:44:07.000Z</time>
      </trkpt>
      <trkpt lat="48.71007" lon="1.73813">
        <ele>177.9</ele>
        <time>2015-06-15T08:44:10.000Z</time>
      </trkpt>
      <trkpt lat="48.71009" lon="1.73812">
        <ele>177.9</ele>
        <time>2015-06-15T08:44:13.000Z</time>
      </trkpt>
      <trkpt lat="48.71022" lon="1.7379">
        <ele>178</ele>
        <time>2015-06-15T08:45:30.000Z</time>
      </trkpt>
      <trkpt lat="48.71026" lon="1.73787">
        <ele>178</ele>
        <time>2015-06-15T08:45:33.000Z</time>
      </trkpt>
      <trkpt lat="48.71031" lon="1.73777">
        <ele>177.9</ele>
        <time>2015-06-15T08:45:39.000Z</time>
      </trkpt>
      <trkpt lat="48.71037" lon="1.73766">
        <ele>177.7</ele>
        <time>2015-06-15T08:45:45.000Z</time>
      </trkpt>
      <trkpt lat="48.71045" lon="1.73756">
        <ele>177.4</ele>
        <time>2015-06-15T08:45:52.000Z</time>
      </trkpt>
      <trkpt lat="48.71051" lon="1.73748">
        <ele>177.2</ele>
        <time>2015-06-15T08:45:59.000Z</time>
      </trkpt>
      <trkpt lat="48.71053" lon="1.73745">
        <ele>177.2</ele>
        <time>2015-06-15T08:46:01.000Z</time>
      </trkpt>
      <trkpt lat="48.7106" lon="1.73739">
        <ele>177.3</ele>
        <time>2015-06-15T08:46:08.000Z</time>
      </trkpt>
      <trkpt lat="48.71061" lon="1.73739">
        <ele>177.3</ele>
        <time>2015-06-15T08:46:09.000Z</time>
      </trkpt>
      <trkpt lat="48.71067" lon="1.73736">
        <ele>177.3</ele>
        <time>2015-06-15T08:46:17.000Z</time>
      </trkpt>
      <trkpt lat="48.71073" lon="1.73733">
        <ele>177.2</ele>
        <time>2015-06-15T08:46:21.000Z</time>
      </trkpt>
      <trkpt lat="48.71081" lon="1.73721">
        <ele>177.1</ele>
        <time>2015-06-15T08:46:29.000Z</time>
      </trkpt>
      <trkpt lat="48.7109" lon="1.73707">
        <ele>177.5</ele>
        <time>2015-06-15T08:46:35.000Z</time>
      </trkpt>
      <trkpt lat="48.71091" lon="1.73706">
        <ele>177.6</ele>
        <time>2015-06-15T08:46:36.000Z</time>
      </trkpt>
      <trkpt lat="48.71096" lon="1.73703">
        <ele>177.7</ele>
        <time>2015-06-15T08:46:40.000Z</time>
      </trkpt>
      <trkpt lat="48.71099" lon="1.73699">
        <ele>177.8</ele>
        <time>2015-06-15T08:46:43.000Z</time>
      </trkpt>
      <trkpt lat="48.7111" lon="1.73695">
        <ele>178</ele>
        <time>2015-06-15T08:46:50.000Z</time>
      </trkpt>
      <trkpt lat="48.7112" lon="1.73686">
        <ele>178</ele>
        <time>2015-06-15T08:46:57.000Z</time>
      </trkpt>
      <trkpt lat="48.71127" lon="1.73675">
        <ele>178</ele>
        <time>2015-06-15T08:47:03.000Z</time>
      </trkpt>
      <trkpt lat="48.71128" lon="1.73672">
        <ele>178</ele>
        <time>2015-06-15T08:47:05.000Z</time>
      </trkpt>
      <trkpt lat="48.71137" lon="1.73661">
        <ele>178</ele>
        <time>2015-06-15T08:47:12.000Z</time>
      </trkpt>
      <trkpt lat="48.71145" lon="1.73651">
        <ele>178</ele>
        <time>2015-06-15T08:47:19.000Z</time>
      </trkpt>
      <trkpt lat="48.71147" lon="1.7365">
        <ele>178</ele>
        <time>2015-06-15T08:47:20.000Z</time>
      </trkpt>
      <trkpt lat="48.71151" lon="1.73646">
        <ele>178</ele>
        <time>2015-06-15T08:47:23.000Z</time>
      </trkpt>
      <trkpt lat="48.71159" lon="1.73637">
        <ele>178</ele>
        <time>2015-06-15T08:47:30.000Z</time>
      </trkpt>
      <trkpt lat="48.71166" lon="1.73633">
        <ele>178</ele>
        <time>2015-06-15T08:47:34.000Z</time>
      </trkpt>
      <trkpt lat="48.71176" lon="1.73626">
        <ele>178</ele>
        <time>2015-06-15T08:47:41.000Z</time>
      </trkpt>
      <trkpt lat="48.71181" lon="1.7362">
        <ele>178</ele>
        <time>2015-06-15T08:47:45.000Z</time>
      </trkpt>
      <trkpt lat="48.71191" lon="1.7361">
        <ele>178</ele>
        <time>2015-06-15T08:47:53.000Z</time>
      </trkpt>
      <trkpt lat="48.71198" lon="1.736">
        <ele>178</ele>
        <time>2015-06-15T08:48:00.000Z</time>
      </trkpt>
      <trkpt lat="48.71204" lon="1.73601">
        <ele>178</ele>
        <time>2015-06-15T08:48:04.000Z</time>
      </trkpt>
      <trkpt lat="48.71212" lon="1.73607">
        <ele>178</ele>
        <time>2015-06-15T08:48:10.000Z</time>
      </trkpt>
      <trkpt lat="48.7122" lon="1.73608">
        <ele>178</ele>
        <time>2015-06-15T08:48:15.000Z</time>
      </trkpt>
      <trkpt lat="48.71231" lon="1.7361">
        <ele>177.7</ele>
        <time>2015-06-15T08:48:23.000Z</time>
      </trkpt>
      <trkpt lat="48.71241" lon="1.73611">
        <ele>177.3</ele>
        <time>2015-06-15T08:48:30.000Z</time>
      </trkpt>
      <trkpt lat="48.71246" lon="1.73612">
        <ele>177.2</ele>
        <time>2015-06-15T08:48:34.000Z</time>
      </trkpt>
      <trkpt lat="48.71253" lon="1.73611">
        <ele>176.8</ele>
        <time>2015-06-15T08:48:40.000Z</time>
      </trkpt>
      <trkpt lat="48.7126" lon="1.73609">
        <ele>176.3</ele>
        <time>2015-06-15T08:48:45.000Z</time>
      </trkpt>
      <trkpt lat="48.71263" lon="1.73608">
        <ele>176.1</ele>
        <time>2015-06-15T08:48:47.000Z</time>
      </trkpt>
      <trkpt lat="48.7127" lon="1.73607">
        <ele>175.7</ele>
        <time>2015-06-15T08:48:53.000Z</time>
      </trkpt>
      <trkpt lat="48.71278" lon="1.73602">
        <ele>175.3</ele>
        <time>2015-06-15T08:48:59.000Z</time>
      </trkpt>
      <trkpt lat="48.71285" lon="1.73592">
        <ele>174.1</ele>
        <time>2015-06-15T08:49:05.000Z</time>
      </trkpt>
      <trkpt lat="48.71288" lon="1.73587">
        <ele>173.6</ele>
        <time>2015-06-15T08:49:08.000Z</time>
      </trkpt>
      <trkpt lat="48.71297" lon="1.7357">
        <ele>172.5</ele>
        <time>2015-06-15T08:49:17.000Z</time>
      </trkpt>
      <trkpt lat="48.71301" lon="1.73557">
        <ele>172.6</ele>
        <time>2015-06-15T08:49:24.000Z</time>
      </trkpt>
      <trkpt lat="48.71304" lon="1.73544">
        <ele>173</ele>
        <time>2015-06-15T08:49:30.000Z</time>
      </trkpt>
      <trkpt lat="48.71306" lon="1.73538">
        <ele>173.1</ele>
        <time>2015-06-15T08:49:34.000Z</time>
      </trkpt>
      <trkpt lat="48.71314" lon="1.73532">
        <ele>171.7</ele>
        <time>2015-06-15T08:49:40.000Z</time>
      </trkpt>
      <trkpt lat="48.71321" lon="1.73521">
        <ele>171.7</ele>
        <time>2015-06-15T08:49:46.000Z</time>
      </trkpt>
      <trkpt lat="48.7133" lon="1.7352">
        <ele>170.3</ele>
        <time>2015-06-15T08:49:51.000Z</time>
      </trkpt>
      <trkpt lat="48.71337" lon="1.73522">
        <ele>169.6</ele>
        <time>2015-06-15T08:49:56.000Z</time>
      </trkpt>
      <trkpt lat="48.71342" lon="1.73525">
        <ele>169.5</ele>
        <time>2015-06-15T08:50:00.000Z</time>
      </trkpt>
      <trkpt lat="48.71348" lon="1.73536">
        <ele>167.7</ele>
        <time>2015-06-15T08:50:06.000Z</time>
      </trkpt>
      <trkpt lat="48.71352" lon="1.73542">
        <ele>166.8</ele>
        <time>2015-06-15T08:50:09.000Z</time>
      </trkpt>
      <trkpt lat="48.71362" lon="1.73551">
        <ele>165.9</ele>
        <time>2015-06-15T08:50:16.000Z</time>
      </trkpt>
      <trkpt lat="48.71372" lon="1.7356">
        <ele>164.4</ele>
        <time>2015-06-15T08:50:23.000Z</time>
      </trkpt>
      <trkpt lat="48.71378" lon="1.73569">
        <ele>163.5</ele>
        <time>2015-06-15T08:50:29.000Z</time>
      </trkpt>
      <trkpt lat="48.71382" lon="1.73571">
        <ele>163.5</ele>
        <time>2015-06-15T08:50:33.000Z</time>
      </trkpt>
      <trkpt lat="48.71388" lon="1.73575">
        <ele>163.5</ele>
        <time>2015-06-15T08:50:38.000Z</time>
      </trkpt>
      <trkpt lat="48.71395" lon="1.73574">
        <ele>163.2</ele>
        <time>2015-06-15T08:50:42.000Z</time>
      </trkpt>
      <trkpt lat="48.71409" lon="1.73569">
        <ele>162.2</ele>
        <time>2015-06-15T08:50:51.000Z</time>
      </trkpt>
      <trkpt lat="48.71413" lon="1.73568">
        <ele>161.9</ele>
        <time>2015-06-15T08:50:54.000Z</time>
      </trkpt>
      <trkpt lat="48.71423" lon="1.73567">
        <ele>160.7</ele>
        <time>2015-06-15T08:51:01.000Z</time>
      </trkpt>
      <trkpt lat="48.71426" lon="1.73565">
        <ele>160.2</ele>
        <time>2015-06-15T08:51:05.000Z</time>
      </trkpt>
      <trkpt lat="48.7143" lon="1.73565">
        <ele>159.6</ele>
        <time>2015-06-15T08:51:07.000Z</time>
      </trkpt>
      <trkpt lat="48.71441" lon="1.73561">
        <ele>157.7</ele>
        <time>2015-06-15T08:51:15.000Z</time>
      </trkpt>
      <trkpt lat="48.71452" lon="1.73558">
        <ele>156</ele>
        <time>2015-06-15T08:51:22.000Z</time>
      </trkpt>
      <trkpt lat="48.71461" lon="1.73556">
        <ele>154.6</ele>
        <time>2015-06-15T08:51:28.000Z</time>
      </trkpt>
      <trkpt lat="48.71464" lon="1.73558">
        <ele>154.2</ele>
        <time>2015-06-15T08:51:30.000Z</time>
      </trkpt>
      <trkpt lat="48.71475" lon="1.73554">
        <ele>152.7</ele>
        <time>2015-06-15T08:51:35.000Z</time>
      </trkpt>
      <trkpt lat="48.71488" lon="1.73554">
        <ele>151.3</ele>
        <time>2015-06-15T08:51:40.000Z</time>
      </trkpt>
      <trkpt lat="48.71491" lon="1.73553">
        <ele>150.9</ele>
        <time>2015-06-15T08:51:42.000Z</time>
      </trkpt>
      <trkpt lat="48.715" lon="1.73549">
        <ele>149.8</ele>
        <time>2015-06-15T08:51:48.000Z</time>
      </trkpt>
      <trkpt lat="48.71508" lon="1.73547">
        <ele>149.1</ele>
        <time>2015-06-15T08:51:54.000Z</time>
      </trkpt>
      <trkpt lat="48.7152" lon="1.73544">
        <ele>148.3</ele>
        <time>2015-06-15T08:52:01.000Z</time>
      </trkpt>
      <trkpt lat="48.71522" lon="1.73544">
        <ele>148.2</ele>
        <time>2015-06-15T08:52:02.000Z</time>
      </trkpt>
      <trkpt lat="48.71529" lon="1.73544">
        <ele>147.7</ele>
        <time>2015-06-15T08:52:07.000Z</time>
      </trkpt>
      <trkpt lat="48.71538" lon="1.73543">
        <ele>147.4</ele>
        <time>2015-06-15T08:52:13.000Z</time>
      </trkpt>
      <trkpt lat="48.71548" lon="1.73542">
        <ele>146.9</ele>
        <time>2015-06-15T08:52:20.000Z</time>
      </trkpt>
      <trkpt lat="48.7156" lon="1.7354">
        <ele>146.2</ele>
        <time>2015-06-15T08:52:28.000Z</time>
      </trkpt>
      <trkpt lat="48.71568" lon="1.73536">
        <ele>145.5</ele>
        <time>2015-06-15T08:52:34.000Z</time>
      </trkpt>
      <trkpt lat="48.71577" lon="1.73533">
        <ele>144.6</ele>
        <time>2015-06-15T08:52:40.000Z</time>
      </trkpt>
      <trkpt lat="48.71583" lon="1.7353">
        <ele>144</ele>
        <time>2015-06-15T08:52:45.000Z</time>
      </trkpt>
      <trkpt lat="48.71592" lon="1.73528">
        <ele>143.4</ele>
        <time>2015-06-15T08:52:52.000Z</time>
      </trkpt>
      <trkpt lat="48.71603" lon="1.73528">
        <ele>142.6</ele>
        <time>2015-06-15T08:52:59.000Z</time>
      </trkpt>
      <trkpt lat="48.71614" lon="1.73525">
        <ele>142</ele>
        <time>2015-06-15T08:53:06.000Z</time>
      </trkpt>
      <trkpt lat="48.71622" lon="1.73522">
        <ele>141.8</ele>
        <time>2015-06-15T08:53:11.000Z</time>
      </trkpt>
      <trkpt lat="48.71629" lon="1.73519">
        <ele>141.7</ele>
        <time>2015-06-15T08:53:17.000Z</time>
      </trkpt>
      <trkpt lat="48.71638" lon="1.73512">
        <ele>141.6</ele>
        <time>2015-06-15T08:53:24.000Z</time>
      </trkpt>
      <trkpt lat="48.71645" lon="1.73513">
        <ele>141.2</ele>
        <time>2015-06-15T08:53:29.000Z</time>
      </trkpt>
      <trkpt lat="48.71656" lon="1.73512">
        <ele>140.6</ele>
        <time>2015-06-15T08:53:36.000Z</time>
      </trkpt>
      <trkpt lat="48.71658" lon="1.73512">
        <ele>140.5</ele>
        <time>2015-06-15T08:53:37.000Z</time>
      </trkpt>
      <trkpt lat="48.71668" lon="1.73511">
        <ele>139.9</ele>
        <time>2015-06-15T08:53:44.000Z</time>
      </trkpt>
      <trkpt lat="48.71678" lon="1.7351">
        <ele>139.2</ele>
        <time>2015-06-15T08:53:51.000Z</time>
      </trkpt>
      <trkpt lat="48.71686" lon="1.73507">
        <ele>138.6</ele>
        <time>2015-06-15T08:53:57.000Z</time>
      </trkpt>
      <trkpt lat="48.71697" lon="1.73504">
        <ele>137.7</ele>
        <time>2015-06-15T08:54:05.000Z</time>
      </trkpt>
      <trkpt lat="48.71706" lon="1.73502">
        <ele>136.8</ele>
        <time>2015-06-15T08:54:10.000Z</time>
      </trkpt>
      <trkpt lat="48.71714" lon="1.73498">
        <ele>135.9</ele>
        <time>2015-06-15T08:54:16.000Z</time>
      </trkpt>
      <trkpt lat="48.71719" lon="1.73498">
        <ele>135.4</ele>
        <time>2015-06-15T08:54:19.000Z</time>
      </trkpt>
      <trkpt lat="48.71721" lon="1.73499">
        <ele>135.2</ele>
        <time>2015-06-15T08:54:23.000Z</time>
      </trkpt>
      <trkpt lat="48.71728" lon="1.73497">
        <ele>134.7</ele>
        <time>2015-06-15T08:54:33.000Z</time>
      </trkpt>
      <trkpt lat="48.71736" lon="1.73493">
        <ele>134.3</ele>
        <time>2015-06-15T08:54:38.000Z</time>
      </trkpt>
      <trkpt lat="48.71744" lon="1.73492">
        <ele>133.8</ele>
        <time>2015-06-15T08:54:42.000Z</time>
      </trkpt>
      <trkpt lat="48.71745" lon="1.73491">
        <ele>133.7</ele>
        <time>2015-06-15T08:54:43.000Z</time>
      </trkpt>
      <trkpt lat="48.7175" lon="1.73487">
        <ele>133.5</ele>
        <time>2015-06-15T08:54:48.000Z</time>
      </trkpt>
      <trkpt lat="48.71754" lon="1.73477">
        <ele>133.6</ele>
        <time>2015-06-15T08:54:56.000Z</time>
      </trkpt>
      <trkpt lat="48.71754" lon="1.73475">
        <ele>133.6</ele>
        <time>2015-06-15T08:54:57.000Z</time>
      </trkpt>
      <trkpt lat="48.71752" lon="1.73461">
        <ele>133.8</ele>
        <time>2015-06-15T08:55:05.000Z</time>
      </trkpt>
      <trkpt lat="48.71749" lon="1.73447">
        <ele>134.1</ele>
        <time>2015-06-15T08:55:14.000Z</time>
      </trkpt>
      <trkpt lat="48.71748" lon="1.7344">
        <ele>134</ele>
        <time>2015-06-15T08:55:17.000Z</time>
      </trkpt>
      <trkpt lat="48.71744" lon="1.73424">
        <ele>133.7</ele>
        <time>2015-06-15T08:55:25.000Z</time>
      </trkpt>
      <trkpt lat="48.71743" lon="1.7342">
        <ele>133.6</ele>
        <time>2015-06-15T08:55:27.000Z</time>
      </trkpt>
      <trkpt lat="48.71741" lon="1.7341">
        <ele>133.4</ele>
        <time>2015-06-15T08:55:32.000Z</time>
      </trkpt>
      <trkpt lat="48.71739" lon="1.73406">
        <ele>133.4</ele>
        <time>2015-06-15T08:55:34.000Z</time>
      </trkpt>
      <trkpt lat="48.71735" lon="1.73392">
        <ele>133.2</ele>
        <time>2015-06-15T08:55:41.000Z</time>
      </trkpt>
      <trkpt lat="48.71729" lon="1.73376">
        <ele>133.5</ele>
        <time>2015-06-15T08:55:49.000Z</time>
      </trkpt>
      <trkpt lat="48.71728" lon="1.73368">
        <ele>133.6</ele>
        <time>2015-06-15T08:55:53.000Z</time>
      </trkpt>
      <trkpt lat="48.71726" lon="1.7336">
        <ele>133.7</ele>
        <time>2015-06-15T08:55:58.000Z</time>
      </trkpt>
      <trkpt lat="48.71721" lon="1.73345">
        <ele>133.5</ele>
        <time>2015-06-15T08:56:05.000Z</time>
      </trkpt>
      <trkpt lat="48.71718" lon="1.7333">
        <ele>133.2</ele>
        <time>2015-06-15T08:56:12.000Z</time>
      </trkpt>
      <trkpt lat="48.71715" lon="1.73322">
        <ele>133.2</ele>
        <time>2015-06-15T08:56:16.000Z</time>
      </trkpt>
      <trkpt lat="48.71714" lon="1.73309">
        <ele>133.3</ele>
        <time>2015-06-15T08:56:22.000Z</time>
      </trkpt>
      <trkpt lat="48.71713" lon="1.73307">
        <ele>133.3</ele>
        <time>2015-06-15T08:56:23.000Z</time>
      </trkpt>
      <trkpt lat="48.71712" lon="1.73296">
        <ele>133.2</ele>
        <time>2015-06-15T08:56:28.000Z</time>
      </trkpt>
      <trkpt lat="48.71711" lon="1.7329">
        <ele>133.1</ele>
        <time>2015-06-15T08:56:31.000Z</time>
      </trkpt>
      <trkpt lat="48.7171" lon="1.7328">
        <ele>132.9</ele>
        <time>2015-06-15T08:56:36.000Z</time>
      </trkpt>
      <trkpt lat="48.71709" lon="1.73265">
        <ele>133</ele>
        <time>2015-06-15T08:56:43.000Z</time>
      </trkpt>
      <trkpt lat="48.71706" lon="1.73247">
        <ele>133.2</ele>
        <time>2015-06-15T08:56:51.000Z</time>
      </trkpt>
      <trkpt lat="48.71705" lon="1.7324">
        <ele>133.2</ele>
        <time>2015-06-15T08:56:54.000Z</time>
      </trkpt>
      <trkpt lat="48.71703" lon="1.73228">
        <ele>133.4</ele>
        <time>2015-06-15T08:57:00.000Z</time>
      </trkpt>
      <trkpt lat="48.71702" lon="1.73222">
        <ele>133.4</ele>
        <time>2015-06-15T08:57:03.000Z</time>
      </trkpt>
      <trkpt lat="48.71701" lon="1.73212">
        <ele>133.2</ele>
        <time>2015-06-15T08:57:08.000Z</time>
      </trkpt>
      <trkpt lat="48.717" lon="1.73205">
        <ele>133.1</ele>
        <time>2015-06-15T08:57:11.000Z</time>
      </trkpt>
      <trkpt lat="48.71698" lon="1.73186">
        <ele>133.1</ele>
        <time>2015-06-15T08:57:20.000Z</time>
      </trkpt>
      <trkpt lat="48.71697" lon="1.73176">
        <ele>133.5</ele>
        <time>2015-06-15T08:57:25.000Z</time>
      </trkpt>
      <trkpt lat="48.71694" lon="1.73162">
        <ele>134</ele>
        <time>2015-06-15T08:57:32.000Z</time>
      </trkpt>
      <trkpt lat="48.71694" lon="1.73158">
        <ele>134</ele>
        <time>2015-06-15T08:57:34.000Z</time>
      </trkpt>
      <trkpt lat="48.71691" lon="1.73137">
        <ele>134</ele>
        <time>2015-06-15T08:57:43.000Z</time>
      </trkpt>
      <trkpt lat="48.7169" lon="1.73125">
        <ele>133.7</ele>
        <time>2015-06-15T08:57:49.000Z</time>
      </trkpt>
      <trkpt lat="48.71688" lon="1.73116">
        <ele>133.4</ele>
        <time>2015-06-15T08:57:53.000Z</time>
      </trkpt>
      <trkpt lat="48.71686" lon="1.73108">
        <ele>133.3</ele>
        <time>2015-06-15T08:57:57.000Z</time>
      </trkpt>
      <trkpt lat="48.71685" lon="1.7309">
        <ele>133.3</ele>
        <time>2015-06-15T08:58:05.000Z</time>
      </trkpt>
      <trkpt lat="48.71684" lon="1.73071">
        <ele>133.2</ele>
        <time>2015-06-15T08:58:13.000Z</time>
      </trkpt>
      <trkpt lat="48.71683" lon="1.73057">
        <ele>133</ele>
        <time>2015-06-15T08:58:20.000Z</time>
      </trkpt>
      <trkpt lat="48.71681" lon="1.73055">
        <ele>133</ele>
        <time>2015-06-15T08:58:26.000Z</time>
      </trkpt>
      <trkpt lat="48.71673" lon="1.73048">
        <ele>133</ele>
        <time>2015-06-15T08:59:00.000Z</time>
      </trkpt>
      <trkpt lat="48.71673" lon="1.73035">
        <ele>133</ele>
        <time>2015-06-15T08:59:05.000Z</time>
      </trkpt>
      <trkpt lat="48.71673" lon="1.73033">
        <ele>133</ele>
        <time>2015-06-15T08:59:06.000Z</time>
      </trkpt>
      <trkpt lat="48.71673" lon="1.73024">
        <ele>133</ele>
        <time>2015-06-15T08:59:12.000Z</time>
      </trkpt>
      <trkpt lat="48.71673" lon="1.7302">
        <ele>132.9</ele>
        <time>2015-06-15T08:59:14.000Z</time>
      </trkpt>
      <trkpt lat="48.71669" lon="1.73004">
        <ele>132.9</ele>
        <time>2015-06-15T08:59:22.000Z</time>
      </trkpt>
      <trkpt lat="48.71666" lon="1.72992">
        <ele>133</ele>
        <time>2015-06-15T08:59:28.000Z</time>
      </trkpt>
      <trkpt lat="48.71663" lon="1.72983">
        <ele>133.3</ele>
        <time>2015-06-15T08:59:33.000Z</time>
      </trkpt>
      <trkpt lat="48.71657" lon="1.7297">
        <ele>133.7</ele>
        <time>2015-06-15T08:59:38.000Z</time>
      </trkpt>
      <trkpt lat="48.71656" lon="1.72959">
        <ele>133.8</ele>
        <time>2015-06-15T08:59:43.000Z</time>
      </trkpt>
      <trkpt lat="48.71651" lon="1.72948">
        <ele>134.2</ele>
        <time>2015-06-15T08:59:49.000Z</time>
      </trkpt>
      <trkpt lat="48.71647" lon="1.72935">
        <ele>134.2</ele>
        <time>2015-06-15T08:59:55.000Z</time>
      </trkpt>
      <trkpt lat="48.71642" lon="1.72926">
        <ele>134.2</ele>
        <time>2015-06-15T08:59:58.000Z</time>
      </trkpt>
      <trkpt lat="48.71633" lon="1.72905">
        <ele>134.9</ele>
        <time>2015-06-15T09:00:04.000Z</time>
      </trkpt>
      <trkpt lat="48.71623" lon="1.72888">
        <ele>135.6</ele>
        <time>2015-06-15T09:00:09.000Z</time>
      </trkpt>
      <trkpt lat="48.71618" lon="1.72874">
        <ele>135.9</ele>
        <time>2015-06-15T09:00:14.000Z</time>
      </trkpt>
      <trkpt lat="48.71607" lon="1.72851">
        <ele>136.3</ele>
        <time>2015-06-15T09:00:19.000Z</time>
      </trkpt>
      <trkpt lat="48.71597" lon="1.72831">
        <ele>136.5</ele>
        <time>2015-06-15T09:00:24.000Z</time>
      </trkpt>
      <trkpt lat="48.71587" lon="1.7281">
        <ele>136.9</ele>
        <time>2015-06-15T09:00:29.000Z</time>
      </trkpt>
      <trkpt lat="48.71574" lon="1.72782">
        <ele>138.2</ele>
        <time>2015-06-15T09:00:35.000Z</time>
      </trkpt>
      <trkpt lat="48.7157" lon="1.7277">
        <ele>138.6</ele>
        <time>2015-06-15T09:00:39.000Z</time>
      </trkpt>
      <trkpt lat="48.71557" lon="1.72743">
        <ele>138.5</ele>
        <time>2015-06-15T09:00:45.000Z</time>
      </trkpt>
      <trkpt lat="48.71547" lon="1.72722">
        <ele>137.3</ele>
        <time>2015-06-15T09:00:50.000Z</time>
      </trkpt>
      <trkpt lat="48.71538" lon="1.72699">
        <ele>136.6</ele>
        <time>2015-06-15T09:00:56.000Z</time>
      </trkpt>
      <trkpt lat="48.7153" lon="1.72671">
        <ele>135.2</ele>
        <time>2015-06-15T09:01:02.000Z</time>
      </trkpt>
      <trkpt lat="48.71523" lon="1.72648">
        <ele>135.2</ele>
        <time>2015-06-15T09:01:08.000Z</time>
      </trkpt>
      <trkpt lat="48.71515" lon="1.72613">
        <ele>134.9</ele>
        <time>2015-06-15T09:01:15.000Z</time>
      </trkpt>
      <trkpt lat="48.71512" lon="1.72586">
        <ele>135.1</ele>
        <time>2015-06-15T09:01:20.000Z</time>
      </trkpt>
      <trkpt lat="48.71509" lon="1.72558">
        <ele>135.4</ele>
        <time>2015-06-15T09:01:26.000Z</time>
      </trkpt>
      <trkpt lat="48.71505" lon="1.72529">
        <ele>134.7</ele>
        <time>2015-06-15T09:01:32.000Z</time>
      </trkpt>
      <trkpt lat="48.715" lon="1.72507">
        <ele>135</ele>
        <time>2015-06-15T09:01:36.000Z</time>
      </trkpt>
      <trkpt lat="48.71496" lon="1.72481">
        <ele>135.3</ele>
        <time>2015-06-15T09:01:41.000Z</time>
      </trkpt>
      <trkpt lat="48.71494" lon="1.72457">
        <ele>136.3</ele>
        <time>2015-06-15T09:01:46.000Z</time>
      </trkpt>
      <trkpt lat="48.71494" lon="1.72438">
        <ele>137</ele>
        <time>2015-06-15T09:01:51.000Z</time>
      </trkpt>
      <trkpt lat="48.71493" lon="1.72414">
        <ele>136.9</ele>
        <time>2015-06-15T09:01:57.000Z</time>
      </trkpt>
      <trkpt lat="48.71492" lon="1.72402">
        <ele>136.5</ele>
        <time>2015-06-15T09:02:01.000Z</time>
      </trkpt>
      <trkpt lat="48.71491" lon="1.72367">
        <ele>135.4</ele>
        <time>2015-06-15T09:02:07.000Z</time>
      </trkpt>
      <trkpt lat="48.71494" lon="1.72345">
        <ele>134.8</ele>
        <time>2015-06-15T09:02:12.000Z</time>
      </trkpt>
      <trkpt lat="48.71494" lon="1.72316">
        <ele>134.4</ele>
        <time>2015-06-15T09:02:18.000Z</time>
      </trkpt>
      <trkpt lat="48.71493" lon="1.72293">
        <ele>134.5</ele>
        <time>2015-06-15T09:02:23.000Z</time>
      </trkpt>
      <trkpt lat="48.71488" lon="1.72271">
        <ele>134.8</ele>
        <time>2015-06-15T09:02:27.000Z</time>
      </trkpt>
      <trkpt lat="48.71482" lon="1.72246">
        <ele>135.3</ele>
        <time>2015-06-15T09:02:33.000Z</time>
      </trkpt>
      <trkpt lat="48.71471" lon="1.72214">
        <ele>135.8</ele>
        <time>2015-06-15T09:02:40.000Z</time>
      </trkpt>
      <trkpt lat="48.7146" lon="1.72198">
        <ele>135.5</ele>
        <time>2015-06-15T09:02:44.000Z</time>
      </trkpt>
      <trkpt lat="48.71441" lon="1.72177">
        <ele>135.7</ele>
        <time>2015-06-15T09:02:50.000Z</time>
      </trkpt>
      <trkpt lat="48.71433" lon="1.72156">
        <ele>136.1</ele>
        <time>2015-06-15T09:02:55.000Z</time>
      </trkpt>
      <trkpt lat="48.71433" lon="1.72137">
        <ele>135.8</ele>
        <time>2015-06-15T09:02:59.000Z</time>
      </trkpt>
      <trkpt lat="48.71432" lon="1.72122">
        <ele>135.3</ele>
        <time>2015-06-15T09:03:03.000Z</time>
      </trkpt>
      <trkpt lat="48.71431" lon="1.72115">
        <ele>135.1</ele>
        <time>2015-06-15T09:03:05.000Z</time>
      </trkpt>
      <trkpt lat="48.7142" lon="1.721">
        <ele>135.4</ele>
        <time>2015-06-15T09:03:09.000Z</time>
      </trkpt>
      <trkpt lat="48.71419" lon="1.72083">
        <ele>134.8</ele>
        <time>2015-06-15T09:03:14.000Z</time>
      </trkpt>
      <trkpt lat="48.71411" lon="1.72064">
        <ele>135.3</ele>
        <time>2015-06-15T09:03:19.000Z</time>
      </trkpt>
      <trkpt lat="48.71399" lon="1.72048">
        <ele>135.8</ele>
        <time>2015-06-15T09:03:24.000Z</time>
      </trkpt>
      <trkpt lat="48.71381" lon="1.72025">
        <ele>137.3</ele>
        <time>2015-06-15T09:03:30.000Z</time>
      </trkpt>
      <trkpt lat="48.71364" lon="1.7201">
        <ele>137.9</ele>
        <time>2015-06-15T09:03:35.000Z</time>
      </trkpt>
      <trkpt lat="48.7134" lon="1.71983">
        <ele>140.1</ele>
        <time>2015-06-15T09:03:42.000Z</time>
      </trkpt>
      <trkpt lat="48.7132" lon="1.7196">
        <ele>143</ele>
        <time>2015-06-15T09:03:49.000Z</time>
      </trkpt>
      <trkpt lat="48.71316" lon="1.71943">
        <ele>145.1</ele>
        <time>2015-06-15T09:03:53.000Z</time>
      </trkpt>
      <trkpt lat="48.71318" lon="1.71913">
        <ele>148.3</ele>
        <time>2015-06-15T09:03:59.000Z</time>
      </trkpt>
      <trkpt lat="48.71319" lon="1.71878">
        <ele>147.8</ele>
        <time>2015-06-15T09:04:05.000Z</time>
      </trkpt>
      <trkpt lat="48.71323" lon="1.71862">
        <ele>147.4</ele>
        <time>2015-06-15T09:04:09.000Z</time>
      </trkpt>
      <trkpt lat="48.71326" lon="1.71837">
        <ele>147.5</ele>
        <time>2015-06-15T09:04:14.000Z</time>
      </trkpt>
      <trkpt lat="48.71326" lon="1.71809">
        <ele>146.9</ele>
        <time>2015-06-15T09:04:20.000Z</time>
      </trkpt>
      <trkpt lat="48.71323" lon="1.71781">
        <ele>146.8</ele>
        <time>2015-06-15T09:04:26.000Z</time>
      </trkpt>
      <trkpt lat="48.7132" lon="1.71741">
        <ele>145.9</ele>
        <time>2015-06-15T09:04:34.000Z</time>
      </trkpt>
      <trkpt lat="48.7132" lon="1.71705">
        <ele>145.3</ele>
        <time>2015-06-15T09:04:41.000Z</time>
      </trkpt>
      <trkpt lat="48.71321" lon="1.71683">
        <ele>144.3</ele>
        <time>2015-06-15T09:04:45.000Z</time>
      </trkpt>
      <trkpt lat="48.71319" lon="1.7165">
        <ele>143.2</ele>
        <time>2015-06-15T09:04:51.000Z</time>
      </trkpt>
      <trkpt lat="48.71316" lon="1.71622">
        <ele>142.4</ele>
        <time>2015-06-15T09:04:56.000Z</time>
      </trkpt>
      <trkpt lat="48.71316" lon="1.71602">
        <ele>141.9</ele>
        <time>2015-06-15T09:05:00.000Z</time>
      </trkpt>
      <trkpt lat="48.71318" lon="1.7158">
        <ele>141.4</ele>
        <time>2015-06-15T09:05:04.000Z</time>
      </trkpt>
      <trkpt lat="48.71316" lon="1.71539">
        <ele>140.4</ele>
        <time>2015-06-15T09:05:11.000Z</time>
      </trkpt>
      <trkpt lat="48.71316" lon="1.71497">
        <ele>140.2</ele>
        <time>2015-06-15T09:05:18.000Z</time>
      </trkpt>
      <trkpt lat="48.71312" lon="1.71464">
        <ele>139.3</ele>
        <time>2015-06-15T09:05:24.000Z</time>
      </trkpt>
      <trkpt lat="48.71303" lon="1.71433">
        <ele>139.5</ele>
        <time>2015-06-15T09:05:30.000Z</time>
      </trkpt>
      <trkpt lat="48.71299" lon="1.71404">
        <ele>140.3</ele>
        <time>2015-06-15T09:05:35.000Z</time>
      </trkpt>
      <trkpt lat="48.71296" lon="1.71376">
        <ele>140.5</ele>
        <time>2015-06-15T09:05:40.000Z</time>
      </trkpt>
      <trkpt lat="48.7129" lon="1.71337">
        <ele>140.6</ele>
        <time>2015-06-15T09:05:47.000Z</time>
      </trkpt>
      <trkpt lat="48.71284" lon="1.71301">
        <ele>140.4</ele>
        <time>2015-06-15T09:05:53.000Z</time>
      </trkpt>
      <trkpt lat="48.71276" lon="1.71267">
        <ele>140.1</ele>
        <time>2015-06-15T09:05:59.000Z</time>
      </trkpt>
      <trkpt lat="48.71273" lon="1.71248">
        <ele>140.4</ele>
        <time>2015-06-15T09:06:02.000Z</time>
      </trkpt>
      <trkpt lat="48.71273" lon="1.71206">
        <ele>140.4</ele>
        <time>2015-06-15T09:06:09.000Z</time>
      </trkpt>
      <trkpt lat="48.71273" lon="1.71177">
        <ele>140.4</ele>
        <time>2015-06-15T09:06:14.000Z</time>
      </trkpt>
      <trkpt lat="48.71266" lon="1.71134">
        <ele>141.3</ele>
        <time>2015-06-15T09:06:22.000Z</time>
      </trkpt>
      <trkpt lat="48.71258" lon="1.71112">
        <ele>142.1</ele>
        <time>2015-06-15T09:06:27.000Z</time>
      </trkpt>
      <trkpt lat="48.71245" lon="1.71081">
        <ele>141.5</ele>
        <time>2015-06-15T09:06:34.000Z</time>
      </trkpt>
      <trkpt lat="48.71233" lon="1.71057">
        <ele>140.7</ele>
        <time>2015-06-15T09:06:40.000Z</time>
      </trkpt>
      <trkpt lat="48.71221" lon="1.7103">
        <ele>139.2</ele>
        <time>2015-06-15T09:06:46.000Z</time>
      </trkpt>
      <trkpt lat="48.71214" lon="1.71008">
        <ele>138.3</ele>
        <time>2015-06-15T09:06:51.000Z</time>
      </trkpt>
      <trkpt lat="48.71212" lon="1.70984">
        <ele>137.1</ele>
        <time>2015-06-15T09:06:56.000Z</time>
      </trkpt>
      <trkpt lat="48.71212" lon="1.70953">
        <ele>136</ele>
        <time>2015-06-15T09:07:02.000Z</time>
      </trkpt>
      <trkpt lat="48.71211" lon="1.70919">
        <ele>135.8</ele>
        <time>2015-06-15T09:07:08.000Z</time>
      </trkpt>
      <trkpt lat="48.71211" lon="1.70899">
        <ele>135.8</ele>
        <time>2015-06-15T09:07:12.000Z</time>
      </trkpt>
      <trkpt lat="48.71215" lon="1.70869">
        <ele>137.2</ele>
        <time>2015-06-15T09:07:17.000Z</time>
      </trkpt>
      <trkpt lat="48.71222" lon="1.70838">
        <ele>138.7</ele>
        <time>2015-06-15T09:07:23.000Z</time>
      </trkpt>
      <trkpt lat="48.71223" lon="1.70809">
        <ele>142.5</ele>
        <time>2015-06-15T09:07:29.000Z</time>
      </trkpt>
      <trkpt lat="48.7122" lon="1.70782">
        <ele>143.3</ele>
        <time>2015-06-15T09:07:35.000Z</time>
      </trkpt>
      <trkpt lat="48.7122" lon="1.70748">
        <ele>144.2</ele>
        <time>2015-06-15T09:07:42.000Z</time>
      </trkpt>
      <trkpt lat="48.7122" lon="1.70716">
        <ele>144.5</ele>
        <time>2015-06-15T09:07:48.000Z</time>
      </trkpt>
      <trkpt lat="48.71224" lon="1.70685">
        <ele>144.8</ele>
        <time>2015-06-15T09:07:54.000Z</time>
      </trkpt>
      <trkpt lat="48.71224" lon="1.70649">
        <ele>144.8</ele>
        <time>2015-06-15T09:08:01.000Z</time>
      </trkpt>
      <trkpt lat="48.71219" lon="1.70609">
        <ele>144</ele>
        <time>2015-06-15T09:08:09.000Z</time>
      </trkpt>
      <trkpt lat="48.71211" lon="1.70579">
        <ele>142.6</ele>
        <time>2015-06-15T09:08:15.000Z</time>
      </trkpt>
      <trkpt lat="48.71202" lon="1.70556">
        <ele>142.5</ele>
        <time>2015-06-15T09:08:20.000Z</time>
      </trkpt>
      <trkpt lat="48.71194" lon="1.70519">
        <ele>142</ele>
        <time>2015-06-15T09:08:27.000Z</time>
      </trkpt>
      <trkpt lat="48.71192" lon="1.70498">
        <ele>142</ele>
        <time>2015-06-15T09:08:31.000Z</time>
      </trkpt>
      <trkpt lat="48.71185" lon="1.70479">
        <ele>141.3</ele>
        <time>2015-06-15T09:08:35.000Z</time>
      </trkpt>
      <trkpt lat="48.71174" lon="1.70457">
        <ele>140</ele>
        <time>2015-06-15T09:08:40.000Z</time>
      </trkpt>
      <trkpt lat="48.71166" lon="1.70432">
        <ele>138.6</ele>
        <time>2015-06-15T09:08:45.000Z</time>
      </trkpt>
      <trkpt lat="48.71158" lon="1.704">
        <ele>137.3</ele>
        <time>2015-06-15T09:08:50.000Z</time>
      </trkpt>
      <trkpt lat="48.71158" lon="1.70365">
        <ele>136.4</ele>
        <time>2015-06-15T09:08:55.000Z</time>
      </trkpt>
      <trkpt lat="48.71161" lon="1.70346">
        <ele>136.3</ele>
        <time>2015-06-15T09:08:58.000Z</time>
      </trkpt>
      <trkpt lat="48.71163" lon="1.70329">
        <ele>136.4</ele>
        <time>2015-06-15T09:09:01.000Z</time>
      </trkpt>
      <trkpt lat="48.71164" lon="1.70306">
        <ele>137.1</ele>
        <time>2015-06-15T09:09:05.000Z</time>
      </trkpt>
      <trkpt lat="48.71165" lon="1.70292">
        <ele>137.1</ele>
        <time>2015-06-15T09:09:07.000Z</time>
      </trkpt>
      <trkpt lat="48.71171" lon="1.70267">
        <ele>137.2</ele>
        <time>2015-06-15T09:09:12.000Z</time>
      </trkpt>
      <trkpt lat="48.71176" lon="1.70241">
        <ele>137.3</ele>
        <time>2015-06-15T09:09:17.000Z</time>
      </trkpt>
      <trkpt lat="48.71187" lon="1.70215">
        <ele>136.7</ele>
        <time>2015-06-15T09:09:22.000Z</time>
      </trkpt>
      <trkpt lat="48.71193" lon="1.70198">
        <ele>137</ele>
        <time>2015-06-15T09:09:26.000Z</time>
      </trkpt>
      <trkpt lat="48.71197" lon="1.70167">
        <ele>135.9</ele>
        <time>2015-06-15T09:09:31.000Z</time>
      </trkpt>
      <trkpt lat="48.71201" lon="1.70141">
        <ele>136.7</ele>
        <time>2015-06-15T09:09:36.000Z</time>
      </trkpt>
      <trkpt lat="48.71209" lon="1.70113">
        <ele>136.5</ele>
        <time>2015-06-15T09:09:42.000Z</time>
      </trkpt>
      <trkpt lat="48.71217" lon="1.70074">
        <ele>137.2</ele>
        <time>2015-06-15T09:09:49.000Z</time>
      </trkpt>
      <trkpt lat="48.71225" lon="1.70041">
        <ele>137.5</ele>
        <time>2015-06-15T09:09:55.000Z</time>
      </trkpt>
      <trkpt lat="48.71229" lon="1.70018">
        <ele>138.1</ele>
        <time>2015-06-15T09:09:59.000Z</time>
      </trkpt>
      <trkpt lat="48.71231" lon="1.69999">
        <ele>138.7</ele>
        <time>2015-06-15T09:10:03.000Z</time>
      </trkpt>
      <trkpt lat="48.7123" lon="1.69973">
        <ele>139.4</ele>
        <time>2015-06-15T09:10:07.000Z</time>
      </trkpt>
      <trkpt lat="48.71231" lon="1.6993">
        <ele>139.8</ele>
        <time>2015-06-15T09:10:14.000Z</time>
      </trkpt>
      <trkpt lat="48.71232" lon="1.69912">
        <ele>140.2</ele>
        <time>2015-06-15T09:10:17.000Z</time>
      </trkpt>
      <trkpt lat="48.71234" lon="1.69876">
        <ele>141.3</ele>
        <time>2015-06-15T09:10:22.000Z</time>
      </trkpt>
      <trkpt lat="48.71235" lon="1.69859">
        <ele>141.6</ele>
        <time>2015-06-15T09:10:24.000Z</time>
      </trkpt>
      <trkpt lat="48.71238" lon="1.69838">
        <ele>142.3</ele>
        <time>2015-06-15T09:10:27.000Z</time>
      </trkpt>
      <trkpt lat="48.71242" lon="1.69804">
        <ele>143.7</ele>
        <time>2015-06-15T09:10:32.000Z</time>
      </trkpt>
      <trkpt lat="48.71243" lon="1.69792">
        <ele>144.3</ele>
        <time>2015-06-15T09:10:34.000Z</time>
      </trkpt>
      <trkpt lat="48.71246" lon="1.69766">
        <ele>145.2</ele>
        <time>2015-06-15T09:10:38.000Z</time>
      </trkpt>
      <trkpt lat="48.71255" lon="1.69727">
        <ele>146.3</ele>
        <time>2015-06-15T09:10:46.000Z</time>
      </trkpt>
      <trkpt lat="48.7126" lon="1.69699">
        <ele>146.3</ele>
        <time>2015-06-15T09:10:52.000Z</time>
      </trkpt>
      <trkpt lat="48.71261" lon="1.69677">
        <ele>146.8</ele>
        <time>2015-06-15T09:10:57.000Z</time>
      </trkpt>
      <trkpt lat="48.71261" lon="1.69675">
        <ele>146.9</ele>
        <time>2015-06-15T09:10:58.000Z</time>
      </trkpt>
      <trkpt lat="48.71257" lon="1.69668">
        <ele>147.5</ele>
        <time>2015-06-15T09:11:03.000Z</time>
      </trkpt>
      <trkpt lat="48.71254" lon="1.69666">
        <ele>147.7</ele>
        <time>2015-06-15T09:11:05.000Z</time>
      </trkpt>
      <trkpt lat="48.7124" lon="1.69664">
        <ele>148.7</ele>
        <time>2015-06-15T09:11:14.000Z</time>
      </trkpt>
      <trkpt lat="48.7123" lon="1.69665">
        <ele>149.4</ele>
        <time>2015-06-15T09:11:21.000Z</time>
      </trkpt>
      <trkpt lat="48.71222" lon="1.69667">
        <ele>150</ele>
        <time>2015-06-15T09:11:27.000Z</time>
      </trkpt>
      <trkpt lat="48.71212" lon="1.69667">
        <ele>150.3</ele>
        <time>2015-06-15T09:11:35.000Z</time>
      </trkpt>
      <trkpt lat="48.71204" lon="1.6966">
        <ele>151</ele>
        <time>2015-06-15T09:11:42.000Z</time>
      </trkpt>
      <trkpt lat="48.71199" lon="1.69648">
        <ele>152</ele>
        <time>2015-06-15T09:11:49.000Z</time>
      </trkpt>
      <trkpt lat="48.71191" lon="1.69635">
        <ele>153.4</ele>
        <time>2015-06-15T09:11:57.000Z</time>
      </trkpt>
      <trkpt lat="48.71182" lon="1.6962">
        <ele>154.8</ele>
        <time>2015-06-15T09:12:06.000Z</time>
      </trkpt>
      <trkpt lat="48.71177" lon="1.69606">
        <ele>155.9</ele>
        <time>2015-06-15T09:12:14.000Z</time>
      </trkpt>
      <trkpt lat="48.71176" lon="1.69605">
        <ele>156</ele>
        <time>2015-06-15T09:12:15.000Z</time>
      </trkpt>
      <trkpt lat="48.71174" lon="1.69597">
        <ele>156.5</ele>
        <time>2015-06-15T09:12:19.000Z</time>
      </trkpt>
      <trkpt lat="48.71172" lon="1.69589">
        <ele>157.1</ele>
        <time>2015-06-15T09:12:23.000Z</time>
      </trkpt>
      <trkpt lat="48.71164" lon="1.69577">
        <ele>158.6</ele>
        <time>2015-06-15T09:12:30.000Z</time>
      </trkpt>
      <trkpt lat="48.71153" lon="1.6957">
        <ele>160.5</ele>
        <time>2015-06-15T09:12:38.000Z</time>
      </trkpt>
      <trkpt lat="48.71144" lon="1.69569">
        <ele>161.7</ele>
        <time>2015-06-15T09:12:44.000Z</time>
      </trkpt>
      <trkpt lat="48.71142" lon="1.69567">
        <ele>162.2</ele>
        <time>2015-06-15T09:12:46.000Z</time>
      </trkpt>
      <trkpt lat="48.71133" lon="1.69564">
        <ele>163.5</ele>
        <time>2015-06-15T09:12:52.000Z</time>
      </trkpt>
      <trkpt lat="48.71122" lon="1.6956">
        <ele>165.2</ele>
        <time>2015-06-15T09:13:00.000Z</time>
      </trkpt>
      <trkpt lat="48.71113" lon="1.69557">
        <ele>166.6</ele>
        <time>2015-06-15T09:13:06.000Z</time>
      </trkpt>
      <trkpt lat="48.71104" lon="1.69555">
        <ele>167.8</ele>
        <time>2015-06-15T09:13:13.000Z</time>
      </trkpt>
      <trkpt lat="48.71093" lon="1.69549">
        <ele>169.1</ele>
        <time>2015-06-15T09:13:21.000Z</time>
      </trkpt>
      <trkpt lat="48.71092" lon="1.69549">
        <ele>169.2</ele>
        <time>2015-06-15T09:13:22.000Z</time>
      </trkpt>
      <trkpt lat="48.71084" lon="1.69546">
        <ele>170.3</ele>
        <time>2015-06-15T09:13:28.000Z</time>
      </trkpt>
      <trkpt lat="48.71076" lon="1.69544">
        <ele>171.7</ele>
        <time>2015-06-15T09:13:34.000Z</time>
      </trkpt>
      <trkpt lat="48.71066" lon="1.6954">
        <ele>173.3</ele>
        <time>2015-06-15T09:13:42.000Z</time>
      </trkpt>
      <trkpt lat="48.71055" lon="1.69534">
        <ele>175.1</ele>
        <time>2015-06-15T09:13:51.000Z</time>
      </trkpt>
      <trkpt lat="48.71054" lon="1.69534">
        <ele>175.2</ele>
        <time>2015-06-15T09:13:52.000Z</time>
      </trkpt>
      <trkpt lat="48.71047" lon="1.69531">
        <ele>175.9</ele>
        <time>2015-06-15T09:13:57.000Z</time>
      </trkpt>
      <trkpt lat="48.71046" lon="1.6953">
        <ele>176.1</ele>
        <time>2015-06-15T09:13:58.000Z</time>
      </trkpt>
      <trkpt lat="48.7104" lon="1.69528">
        <ele>176.6</ele>
        <time>2015-06-15T09:14:03.000Z</time>
      </trkpt>
      <trkpt lat="48.71036" lon="1.69523">
        <ele>177.1</ele>
        <time>2015-06-15T09:14:07.000Z</time>
      </trkpt>
      <trkpt lat="48.71034" lon="1.6952">
        <ele>177.3</ele>
        <time>2015-06-15T09:14:09.000Z</time>
      </trkpt>
      <trkpt lat="48.71027" lon="1.69511">
        <ele>178</ele>
        <time>2015-06-15T09:14:15.000Z</time>
      </trkpt>
      <trkpt lat="48.71019" lon="1.69508">
        <ele>178</ele>
        <time>2015-06-15T09:14:21.000Z</time>
      </trkpt>
      <trkpt lat="48.71014" lon="1.69508">
        <ele>178</ele>
        <time>2015-06-15T09:14:25.000Z</time>
      </trkpt>
      <trkpt lat="48.71004" lon="1.69508">
        <ele>178</ele>
        <time>2015-06-15T09:14:32.000Z</time>
      </trkpt>
      <trkpt lat="48.70996" lon="1.6951">
        <ele>178</ele>
        <time>2015-06-15T09:14:37.000Z</time>
      </trkpt>
      <trkpt lat="48.7099" lon="1.69511">
        <ele>178</ele>
        <time>2015-06-15T09:14:41.000Z</time>
      </trkpt>
      <trkpt lat="48.7098" lon="1.6951">
        <ele>178</ele>
        <time>2015-06-15T09:14:48.000Z</time>
      </trkpt>
      <trkpt lat="48.70964" lon="1.69508">
        <ele>177.6</ele>
        <time>2015-06-15T09:14:58.000Z</time>
      </trkpt>
      <trkpt lat="48.70958" lon="1.69506">
        <ele>177.3</ele>
        <time>2015-06-15T09:15:03.000Z</time>
      </trkpt>
      <trkpt lat="48.70951" lon="1.69506">
        <ele>176.9</ele>
        <time>2015-06-15T09:15:08.000Z</time>
      </trkpt>
      <trkpt lat="48.70944" lon="1.69506">
        <ele>176.5</ele>
        <time>2015-06-15T09:15:12.000Z</time>
      </trkpt>
      <trkpt lat="48.70935" lon="1.69507">
        <ele>176.2</ele>
        <time>2015-06-15T09:15:18.000Z</time>
      </trkpt>
      <trkpt lat="48.70927" lon="1.69505">
        <ele>176</ele>
        <time>2015-06-15T09:15:24.000Z</time>
      </trkpt>
      <trkpt lat="48.70926" lon="1.69505">
        <ele>176</ele>
        <time>2015-06-15T09:15:25.000Z</time>
      </trkpt>
      <trkpt lat="48.70917" lon="1.69506">
        <ele>175.6</ele>
        <time>2015-06-15T09:15:31.000Z</time>
      </trkpt>
      <trkpt lat="48.70908" lon="1.69505">
        <ele>175.6</ele>
        <time>2015-06-15T09:15:37.000Z</time>
      </trkpt>
      <trkpt lat="48.70898" lon="1.69505">
        <ele>175.6</ele>
        <time>2015-06-15T09:15:43.000Z</time>
      </trkpt>
      <trkpt lat="48.70896" lon="1.69504">
        <ele>175.6</ele>
        <time>2015-06-15T09:15:44.000Z</time>
      </trkpt>
      <trkpt lat="48.70888" lon="1.69502">
        <ele>175.8</ele>
        <time>2015-06-15T09:15:49.000Z</time>
      </trkpt>
      <trkpt lat="48.70881" lon="1.69503">
        <ele>176.2</ele>
        <time>2015-06-15T09:15:54.000Z</time>
      </trkpt>
      <trkpt lat="48.70872" lon="1.69502">
        <ele>177</ele>
        <time>2015-06-15T09:16:00.000Z</time>
      </trkpt>
      <trkpt lat="48.70864" lon="1.69498">
        <ele>177.8</ele>
        <time>2015-06-15T09:16:05.000Z</time>
      </trkpt>
      <trkpt lat="48.70854" lon="1.69491">
        <ele>178.2</ele>
        <time>2015-06-15T09:16:13.000Z</time>
      </trkpt>
      <trkpt lat="48.70843" lon="1.69481">
        <ele>178.6</ele>
        <time>2015-06-15T09:16:22.000Z</time>
      </trkpt>
      <trkpt lat="48.70833" lon="1.69474">
        <ele>179</ele>
        <time>2015-06-15T09:16:30.000Z</time>
      </trkpt>
      <trkpt lat="48.70823" lon="1.69465">
        <ele>179</ele>
        <time>2015-06-15T09:16:38.000Z</time>
      </trkpt>
      <trkpt lat="48.70816" lon="1.69458">
        <ele>179</ele>
        <time>2015-06-15T09:16:43.000Z</time>
      </trkpt>
      <trkpt lat="48.70807" lon="1.69447">
        <ele>179</ele>
        <time>2015-06-15T09:16:51.000Z</time>
      </trkpt>
      <trkpt lat="48.708" lon="1.6944">
        <ele>179</ele>
        <time>2015-06-15T09:16:57.000Z</time>
      </trkpt>
      <trkpt lat="48.70793" lon="1.69433">
        <ele>179</ele>
        <time>2015-06-15T09:17:03.000Z</time>
      </trkpt>
      <trkpt lat="48.70786" lon="1.69428">
        <ele>179</ele>
        <time>2015-06-15T09:17:08.000Z</time>
      </trkpt>
      <trkpt lat="48.70781" lon="1.69426">
        <ele>179</ele>
        <time>2015-06-15T09:17:12.000Z</time>
      </trkpt>
      <trkpt lat="48.70781" lon="1.69415">
        <ele>179</ele>
        <time>2015-06-15T09:17:19.000Z</time>
      </trkpt>
      <trkpt lat="48.70782" lon="1.69409">
        <ele>179</ele>
        <time>2015-06-15T09:17:22.000Z</time>
      </trkpt>
      <trkpt lat="48.70783" lon="1.69389">
        <ele>179</ele>
        <time>2015-06-15T09:17:31.000Z</time>
      </trkpt>
      <trkpt lat="48.70783" lon="1.69386">
        <ele>179</ele>
        <time>2015-06-15T09:17:32.000Z</time>
      </trkpt>
      <trkpt lat="48.70783" lon="1.69373">
        <ele>179</ele>
        <time>2015-06-15T09:17:38.000Z</time>
      </trkpt>
      <trkpt lat="48.70783" lon="1.69359">
        <ele>179</ele>
        <time>2015-06-15T09:17:44.000Z</time>
      </trkpt>
      <trkpt lat="48.70784" lon="1.69344">
        <ele>179</ele>
        <time>2015-06-15T09:17:51.000Z</time>
      </trkpt>
      <trkpt lat="48.70784" lon="1.69332">
        <ele>179</ele>
        <time>2015-06-15T09:17:57.000Z</time>
      </trkpt>
      <trkpt lat="48.70785" lon="1.69314">
        <ele>179</ele>
        <time>2015-06-15T09:18:06.000Z</time>
      </trkpt>
      <trkpt lat="48.70786" lon="1.69297">
        <ele>179</ele>
        <time>2015-06-15T09:18:14.000Z</time>
      </trkpt>
      <trkpt lat="48.70786" lon="1.69282">
        <ele>179</ele>
        <time>2015-06-15T09:18:21.000Z</time>
      </trkpt>
      <trkpt lat="48.70787" lon="1.69271">
        <ele>179</ele>
        <time>2015-06-15T09:18:26.000Z</time>
      </trkpt>
      <trkpt lat="48.70787" lon="1.69256">
        <ele>179</ele>
        <time>2015-06-15T09:18:33.000Z</time>
      </trkpt>
      <trkpt lat="48.70787" lon="1.69233">
        <ele>179</ele>
        <time>2015-06-15T09:18:44.000Z</time>
      </trkpt>
      <trkpt lat="48.70789" lon="1.69218">
        <ele>179</ele>
        <time>2015-06-15T09:18:51.000Z</time>
      </trkpt>
      <trkpt lat="48.70789" lon="1.69201">
        <ele>179</ele>
        <time>2015-06-15T09:18:59.000Z</time>
      </trkpt>
      <trkpt lat="48.70789" lon="1.69179">
        <ele>179</ele>
        <time>2015-06-15T09:19:08.000Z</time>
      </trkpt>
      <trkpt lat="48.7079" lon="1.6916">
        <ele>179</ele>
        <time>2015-06-15T09:19:17.000Z</time>
      </trkpt>
      <trkpt lat="48.7079" lon="1.69146">
        <ele>179</ele>
        <time>2015-06-15T09:19:23.000Z</time>
      </trkpt>
      <trkpt lat="48.70786" lon="1.69135">
        <ele>179</ele>
        <time>2015-06-15T09:19:29.000Z</time>
      </trkpt>
      <trkpt lat="48.70782" lon="1.6913">
        <ele>179</ele>
        <time>2015-06-15T09:19:32.000Z</time>
      </trkpt>
      <trkpt lat="48.70776" lon="1.69126">
        <ele>179</ele>
        <time>2015-06-15T09:19:37.000Z</time>
      </trkpt>
      <trkpt lat="48.70768" lon="1.69123">
        <ele>179</ele>
        <time>2015-06-15T09:19:43.000Z</time>
      </trkpt>
      <trkpt lat="48.7076" lon="1.6912">
        <ele>179</ele>
        <time>2015-06-15T09:19:48.000Z</time>
      </trkpt>
      <trkpt lat="48.70752" lon="1.69117">
        <ele>179</ele>
        <time>2015-06-15T09:19:53.000Z</time>
      </trkpt>
      <trkpt lat="48.70751" lon="1.69117">
        <ele>179</ele>
        <time>2015-06-15T09:19:54.000Z</time>
      </trkpt>
      <trkpt lat="48.70744" lon="1.69113">
        <ele>179</ele>
        <time>2015-06-15T09:20:01.000Z</time>
      </trkpt>
      <trkpt lat="48.70734" lon="1.69107">
        <ele>179</ele>
        <time>2015-06-15T09:20:07.000Z</time>
      </trkpt>
      <trkpt lat="48.70726" lon="1.69104">
        <ele>179</ele>
        <time>2015-06-15T09:20:12.000Z</time>
      </trkpt>
      <trkpt lat="48.70723" lon="1.69102">
        <ele>179</ele>
        <time>2015-06-15T09:20:14.000Z</time>
      </trkpt>
      <trkpt lat="48.70718" lon="1.69097">
        <ele>179</ele>
        <time>2015-06-15T09:20:19.000Z</time>
      </trkpt>
      <trkpt lat="48.70714" lon="1.69095">
        <ele>179</ele>
        <time>2015-06-15T09:20:22.000Z</time>
      </trkpt>
      <trkpt lat="48.70705" lon="1.69091">
        <ele>179</ele>
        <time>2015-06-15T09:20:28.000Z</time>
      </trkpt>
      <trkpt lat="48.70695" lon="1.69089">
        <ele>179</ele>
        <time>2015-06-15T09:20:33.000Z</time>
      </trkpt>
      <trkpt lat="48.70687" lon="1.69086">
        <ele>178.7</ele>
        <time>2015-06-15T09:20:39.000Z</time>
      </trkpt>
      <trkpt lat="48.70679" lon="1.69086">
        <ele>178.4</ele>
        <time>2015-06-15T09:20:45.000Z</time>
      </trkpt>
      <trkpt lat="48.70675" lon="1.69084">
        <ele>178.3</ele>
        <time>2015-06-15T09:20:47.000Z</time>
      </trkpt>
      <trkpt lat="48.70669" lon="1.69081">
        <ele>178.1</ele>
        <time>2015-06-15T09:20:51.000Z</time>
      </trkpt>
      <trkpt lat="48.70659" lon="1.69076">
        <ele>178</ele>
        <time>2015-06-15T09:20:59.000Z</time>
      </trkpt>
      <trkpt lat="48.70656" lon="1.69075">
        <ele>178</ele>
        <time>2015-06-15T09:21:01.000Z</time>
      </trkpt>
      <trkpt lat="48.70647" lon="1.69071">
        <ele>178</ele>
        <time>2015-06-15T09:21:07.000Z</time>
      </trkpt>
      <trkpt lat="48.70637" lon="1.69067">
        <ele>178</ele>
        <time>2015-06-15T09:21:15.000Z</time>
      </trkpt>
      <trkpt lat="48.70631" lon="1.69066">
        <ele>178</ele>
        <time>2015-06-15T09:21:21.000Z</time>
      </trkpt>
      <trkpt lat="48.70619" lon="1.69059">
        <ele>178</ele>
        <time>2015-06-15T09:21:27.000Z</time>
      </trkpt>
      <trkpt lat="48.70608" lon="1.69059">
        <ele>178</ele>
        <time>2015-06-15T09:21:34.000Z</time>
      </trkpt>
      <trkpt lat="48.706" lon="1.69056">
        <ele>178</ele>
        <time>2015-06-15T09:21:40.000Z</time>
      </trkpt>
      <trkpt lat="48.70591" lon="1.69052">
        <ele>178</ele>
        <time>2015-06-15T09:21:46.000Z</time>
      </trkpt>
      <trkpt lat="48.70582" lon="1.69049">
        <ele>178</ele>
        <time>2015-06-15T09:21:52.000Z</time>
      </trkpt>
      <trkpt lat="48.70581" lon="1.69048">
        <ele>178</ele>
        <time>2015-06-15T09:21:53.000Z</time>
      </trkpt>
      <trkpt lat="48.70571" lon="1.69046">
        <ele>177.9</ele>
        <time>2015-06-15T09:22:00.000Z</time>
      </trkpt>
      <trkpt lat="48.70561" lon="1.6904">
        <ele>177.5</ele>
        <time>2015-06-15T09:22:07.000Z</time>
      </trkpt>
      <trkpt lat="48.70559" lon="1.69038">
        <ele>177.4</ele>
        <time>2015-06-15T09:22:09.000Z</time>
      </trkpt>
      <trkpt lat="48.70548" lon="1.69032">
        <ele>177.2</ele>
        <time>2015-06-15T09:22:16.000Z</time>
      </trkpt>
      <trkpt lat="48.70546" lon="1.69031">
        <ele>177.1</ele>
        <time>2015-06-15T09:22:17.000Z</time>
      </trkpt>
      <trkpt lat="48.70538" lon="1.69026">
        <ele>176.9</ele>
        <time>2015-06-15T09:22:22.000Z</time>
      </trkpt>
      <trkpt lat="48.70528" lon="1.69021">
        <ele>176.8</ele>
        <time>2015-06-15T09:22:29.000Z</time>
      </trkpt>
      <trkpt lat="48.70521" lon="1.69017">
        <ele>176.3</ele>
        <time>2015-06-15T09:22:34.000Z</time>
      </trkpt>
      <trkpt lat="48.70513" lon="1.69012">
        <ele>175.6</ele>
        <time>2015-06-15T09:22:39.000Z</time>
      </trkpt>
      <trkpt lat="48.70506" lon="1.6901">
        <ele>175.1</ele>
        <time>2015-06-15T09:22:44.000Z</time>
      </trkpt>
      <trkpt lat="48.70501" lon="1.69008">
        <ele>174.6</ele>
        <time>2015-06-15T09:22:50.000Z</time>
      </trkpt>
      <trkpt lat="48.7049" lon="1.69004">
        <ele>173.3</ele>
        <time>2015-06-15T09:22:56.000Z</time>
      </trkpt>
      <trkpt lat="48.70479" lon="1.69001">
        <ele>171.8</ele>
        <time>2015-06-15T09:23:03.000Z</time>
      </trkpt>
      <trkpt lat="48.70471" lon="1.69">
        <ele>170.8</ele>
        <time>2015-06-15T09:23:08.000Z</time>
      </trkpt>
      <trkpt lat="48.70466" lon="1.69">
        <ele>170.4</ele>
        <time>2015-06-15T09:23:12.000Z</time>
      </trkpt>
      <trkpt lat="48.70458" lon="1.68997">
        <ele>169.2</ele>
        <time>2015-06-15T09:23:17.000Z</time>
      </trkpt>
      <trkpt lat="48.70447" lon="1.68989">
        <ele>167.9</ele>
        <time>2015-06-15T09:23:23.000Z</time>
      </trkpt>
      <trkpt lat="48.7044" lon="1.68986">
        <ele>167</ele>
        <time>2015-06-15T09:23:27.000Z</time>
      </trkpt>
      <trkpt lat="48.70438" lon="1.68985">
        <ele>166.8</ele>
        <time>2015-06-15T09:23:28.000Z</time>
      </trkpt>
      <trkpt lat="48.70431" lon="1.68981">
        <ele>165.8</ele>
        <time>2015-06-15T09:23:33.000Z</time>
      </trkpt>
      <trkpt lat="48.70422" lon="1.68976">
        <ele>164.7</ele>
        <time>2015-06-15T09:23:39.000Z</time>
      </trkpt>
      <trkpt lat="48.7041" lon="1.68974">
        <ele>163.8</ele>
        <time>2015-06-15T09:23:46.000Z</time>
      </trkpt>
      <trkpt lat="48.70403" lon="1.68974">
        <ele>163.5</ele>
        <time>2015-06-15T09:23:51.000Z</time>
      </trkpt>
      <trkpt lat="48.70393" lon="1.68967">
        <ele>163</ele>
        <time>2015-06-15T09:23:56.000Z</time>
      </trkpt>
      <trkpt lat="48.70391" lon="1.68967">
        <ele>162.9</ele>
        <time>2015-06-15T09:23:59.000Z</time>
      </trkpt>
      <trkpt lat="48.70383" lon="1.68965">
        <ele>162.5</ele>
        <time>2015-06-15T09:24:06.000Z</time>
      </trkpt>
      <trkpt lat="48.70375" lon="1.68959">
        <ele>162</ele>
        <time>2015-06-15T09:24:11.000Z</time>
      </trkpt>
      <trkpt lat="48.70373" lon="1.68959">
        <ele>162</ele>
        <time>2015-06-15T09:24:12.000Z</time>
      </trkpt>
      <trkpt lat="48.70363" lon="1.68956">
        <ele>161.5</ele>
        <time>2015-06-15T09:24:19.000Z</time>
      </trkpt>
      <trkpt lat="48.70356" lon="1.68953">
        <ele>161.3</ele>
        <time>2015-06-15T09:24:24.000Z</time>
      </trkpt>
      <trkpt lat="48.70343" lon="1.6895">
        <ele>161.2</ele>
        <time>2015-06-15T09:24:32.000Z</time>
      </trkpt>
      <trkpt lat="48.7033" lon="1.68946">
        <ele>161.1</ele>
        <time>2015-06-15T09:24:39.000Z</time>
      </trkpt>
      <trkpt lat="48.70326" lon="1.68943">
        <ele>161</ele>
        <time>2015-06-15T09:24:43.000Z</time>
      </trkpt>
      <trkpt lat="48.70315" lon="1.68942">
        <ele>160.9</ele>
        <time>2015-06-15T09:24:50.000Z</time>
      </trkpt>
      <trkpt lat="48.70306" lon="1.6894">
        <ele>160.8</ele>
        <time>2015-06-15T09:24:56.000Z</time>
      </trkpt>
      <trkpt lat="48.703" lon="1.6894">
        <ele>160.8</ele>
        <time>2015-06-15T09:24:59.000Z</time>
      </trkpt>
      <trkpt lat="48.70293" lon="1.68937">
        <ele>160.7</ele>
        <time>2015-06-15T09:25:04.000Z</time>
      </trkpt>
      <trkpt lat="48.70285" lon="1.68929">
        <ele>160.5</ele>
        <time>2015-06-15T09:25:11.000Z</time>
      </trkpt>
      <trkpt lat="48.70278" lon="1.68925">
        <ele>160.3</ele>
        <time>2015-06-15T09:25:17.000Z</time>
      </trkpt>
      <trkpt lat="48.70267" lon="1.68916">
        <ele>160</ele>
        <time>2015-06-15T09:25:24.000Z</time>
      </trkpt>
      <trkpt lat="48.70266" lon="1.68915">
        <ele>159.9</ele>
        <time>2015-06-15T09:25:25.000Z</time>
      </trkpt>
      <trkpt lat="48.70252" lon="1.68913">
        <ele>159.9</ele>
        <time>2015-06-15T09:25:34.000Z</time>
      </trkpt>
      <trkpt lat="48.70239" lon="1.68916">
        <ele>160</ele>
        <time>2015-06-15T09:25:42.000Z</time>
      </trkpt>
      <trkpt lat="48.70231" lon="1.68925">
        <ele>160.3</ele>
        <time>2015-06-15T09:25:48.000Z</time>
      </trkpt>
      <trkpt lat="48.70224" lon="1.6894">
        <ele>160.8</ele>
        <time>2015-06-15T09:25:55.000Z</time>
      </trkpt>
      <trkpt lat="48.70218" lon="1.68946">
        <ele>160.9</ele>
        <time>2015-06-15T09:26:00.000Z</time>
      </trkpt>
      <trkpt lat="48.70215" lon="1.68949">
        <ele>161</ele>
        <time>2015-06-15T09:26:02.000Z</time>
      </trkpt>
      <trkpt lat="48.70208" lon="1.68959">
        <ele>161.3</ele>
        <time>2015-06-15T09:26:08.000Z</time>
      </trkpt>
      <trkpt lat="48.70206" lon="1.68962">
        <ele>161.4</ele>
        <time>2015-06-15T09:26:10.000Z</time>
      </trkpt>
      <trkpt lat="48.70197" lon="1.68973">
        <ele>162</ele>
        <time>2015-06-15T09:26:18.000Z</time>
      </trkpt>
      <trkpt lat="48.70195" lon="1.68975">
        <ele>162.1</ele>
        <time>2015-06-15T09:26:20.000Z</time>
      </trkpt>
      <trkpt lat="48.7019" lon="1.68982">
        <ele>162.2</ele>
        <time>2015-06-15T09:26:24.000Z</time>
      </trkpt>
      <trkpt lat="48.70184" lon="1.68989">
        <ele>162.2</ele>
        <time>2015-06-15T09:26:29.000Z</time>
      </trkpt>
      <trkpt lat="48.70175" lon="1.69">
        <ele>162.3</ele>
        <time>2015-06-15T09:26:37.000Z</time>
      </trkpt>
      <trkpt lat="48.70169" lon="1.69004">
        <ele>162.2</ele>
        <time>2015-06-15T09:26:41.000Z</time>
      </trkpt>
      <trkpt lat="48.7016" lon="1.69015">
        <ele>162.3</ele>
        <time>2015-06-15T09:26:48.000Z</time>
      </trkpt>
      <trkpt lat="48.7015" lon="1.69026">
        <ele>162.4</ele>
        <time>2015-06-15T09:26:55.000Z</time>
      </trkpt>
      <trkpt lat="48.70148" lon="1.69029">
        <ele>162.4</ele>
        <time>2015-06-15T09:26:57.000Z</time>
      </trkpt>
      <trkpt lat="48.70142" lon="1.69035">
        <ele>162.6</ele>
        <time>2015-06-15T09:27:01.000Z</time>
      </trkpt>
      <trkpt lat="48.70135" lon="1.69046">
        <ele>163.1</ele>
        <time>2015-06-15T09:27:08.000Z</time>
      </trkpt>
      <trkpt lat="48.70131" lon="1.69055">
        <ele>163.4</ele>
        <time>2015-06-15T09:27:12.000Z</time>
      </trkpt>
      <trkpt lat="48.70122" lon="1.69067">
        <ele>163.5</ele>
        <time>2015-06-15T09:27:20.000Z</time>
      </trkpt>
      <trkpt lat="48.70119" lon="1.6907">
        <ele>163.5</ele>
        <time>2015-06-15T09:27:22.000Z</time>
      </trkpt>
      <trkpt lat="48.70115" lon="1.69077">
        <ele>163.7</ele>
        <time>2015-06-15T09:27:26.000Z</time>
      </trkpt>
      <trkpt lat="48.70106" lon="1.69088">
        <ele>164</ele>
        <time>2015-06-15T09:27:33.000Z</time>
      </trkpt>
      <trkpt lat="48.701" lon="1.69097">
        <ele>164.2</ele>
        <time>2015-06-15T09:27:38.000Z</time>
      </trkpt>
      <trkpt lat="48.70089" lon="1.69109">
        <ele>164.3</ele>
        <time>2015-06-15T09:27:46.000Z</time>
      </trkpt>
      <trkpt lat="48.70084" lon="1.69116">
        <ele>164.2</ele>
        <time>2015-06-15T09:27:51.000Z</time>
      </trkpt>
      <trkpt lat="48.70079" lon="1.69121">
        <ele>164</ele>
        <time>2015-06-15T09:27:55.000Z</time>
      </trkpt>
      <trkpt lat="48.70071" lon="1.69131">
        <ele>163.7</ele>
        <time>2015-06-15T09:28:02.000Z</time>
      </trkpt>
      <trkpt lat="48.7007" lon="1.69132">
        <ele>163.7</ele>
        <time>2015-06-15T09:28:03.000Z</time>
      </trkpt>
      <trkpt lat="48.70061" lon="1.69142">
        <ele>163.5</ele>
        <time>2015-06-15T09:28:10.000Z</time>
      </trkpt>
      <trkpt lat="48.70055" lon="1.69149">
        <ele>163.3</ele>
        <time>2015-06-15T09:28:15.000Z</time>
      </trkpt>
      <trkpt lat="48.70046" lon="1.69161">
        <ele>163.1</ele>
        <time>2015-06-15T09:28:22.000Z</time>
      </trkpt>
      <trkpt lat="48.7004" lon="1.69168">
        <ele>163</ele>
        <time>2015-06-15T09:28:26.000Z</time>
      </trkpt>
      <trkpt lat="48.70035" lon="1.69177">
        <ele>163</ele>
        <time>2015-06-15T09:28:31.000Z</time>
      </trkpt>
      <trkpt lat="48.70033" lon="1.6918">
        <ele>162.9</ele>
        <time>2015-06-15T09:28:33.000Z</time>
      </trkpt>
      <trkpt lat="48.70021" lon="1.69191">
        <ele>162.9</ele>
        <time>2015-06-15T09:28:41.000Z</time>
      </trkpt>
      <trkpt lat="48.70017" lon="1.69198">
        <ele>163.1</ele>
        <time>2015-06-15T09:28:45.000Z</time>
      </trkpt>
      <trkpt lat="48.70013" lon="1.69207">
        <ele>163.5</ele>
        <time>2015-06-15T09:28:50.000Z</time>
      </trkpt>
      <trkpt lat="48.70003" lon="1.69219">
        <ele>163.9</ele>
        <time>2015-06-15T09:28:58.000Z</time>
      </trkpt>
      <trkpt lat="48.69996" lon="1.69225">
        <ele>164.1</ele>
        <time>2015-06-15T09:29:04.000Z</time>
      </trkpt>
      <trkpt lat="48.69995" lon="1.69226">
        <ele>164.1</ele>
        <time>2015-06-15T09:29:05.000Z</time>
      </trkpt>
      <trkpt lat="48.6999" lon="1.69234">
        <ele>164.3</ele>
        <time>2015-06-15T09:29:10.000Z</time>
      </trkpt>
      <trkpt lat="48.69982" lon="1.69244">
        <ele>164.3</ele>
        <time>2015-06-15T09:29:17.000Z</time>
      </trkpt>
      <trkpt lat="48.69977" lon="1.69253">
        <ele>164.2</ele>
        <time>2015-06-15T09:29:22.000Z</time>
      </trkpt>
      <trkpt lat="48.69968" lon="1.69268">
        <ele>163.8</ele>
        <time>2015-06-15T09:29:31.000Z</time>
      </trkpt>
      <trkpt lat="48.69966" lon="1.6927">
        <ele>163.8</ele>
        <time>2015-06-15T09:29:33.000Z</time>
      </trkpt>
      <trkpt lat="48.69961" lon="1.6928">
        <ele>163.5</ele>
        <time>2015-06-15T09:29:39.000Z</time>
      </trkpt>
      <trkpt lat="48.69956" lon="1.69283">
        <ele>163.3</ele>
        <time>2015-06-15T09:29:42.000Z</time>
      </trkpt>
      <trkpt lat="48.69951" lon="1.69287">
        <ele>163</ele>
        <time>2015-06-15T09:29:46.000Z</time>
      </trkpt>
      <trkpt lat="48.69949" lon="1.69291">
        <ele>162.8</ele>
        <time>2015-06-15T09:29:48.000Z</time>
      </trkpt>
      <trkpt lat="48.69948" lon="1.69302">
        <ele>162.4</ele>
        <time>2015-06-15T09:29:53.000Z</time>
      </trkpt>
      <trkpt lat="48.69946" lon="1.69317">
        <ele>162.1</ele>
        <time>2015-06-15T09:30:00.000Z</time>
      </trkpt>
      <trkpt lat="48.69943" lon="1.69327">
        <ele>161.9</ele>
        <time>2015-06-15T09:30:05.000Z</time>
      </trkpt>
      <trkpt lat="48.69943" lon="1.69327">
        <ele>161.9</ele>
        <time>2015-06-15T09:30:06.000Z</time>
      </trkpt>
      <trkpt lat="48.69942" lon="1.69336">
        <ele>161.8</ele>
        <time>2015-06-15T09:30:16.000Z</time>
      </trkpt>
      <trkpt lat="48.69944" lon="1.69352">
        <ele>161.9</ele>
        <time>2015-06-15T09:30:21.000Z</time>
      </trkpt>
      <trkpt lat="48.69941" lon="1.69371">
        <ele>161.6</ele>
        <time>2015-06-15T09:30:29.000Z</time>
      </trkpt>
      <trkpt lat="48.69935" lon="1.69377">
        <ele>161</ele>
        <time>2015-06-15T09:30:35.000Z</time>
      </trkpt>
      <trkpt lat="48.69928" lon="1.69388">
        <ele>160.2</ele>
        <time>2015-06-15T09:30:41.000Z</time>
      </trkpt>
      <trkpt lat="48.69925" lon="1.69393">
        <ele>160</ele>
        <time>2015-06-15T09:30:44.000Z</time>
      </trkpt>
      <trkpt lat="48.69919" lon="1.694">
        <ele>159.6</ele>
        <time>2015-06-15T09:30:49.000Z</time>
      </trkpt>
      <trkpt lat="48.69914" lon="1.69401">
        <ele>159.2</ele>
        <time>2015-06-15T09:30:52.000Z</time>
      </trkpt>
      <trkpt lat="48.69901" lon="1.69402">
        <ele>158.3</ele>
        <time>2015-06-15T09:31:00.000Z</time>
      </trkpt>
      <trkpt lat="48.69892" lon="1.69401">
        <ele>157.6</ele>
        <time>2015-06-15T09:31:05.000Z</time>
      </trkpt>
      <trkpt lat="48.69882" lon="1.69398">
        <ele>157</ele>
        <time>2015-06-15T09:31:11.000Z</time>
      </trkpt>
      <trkpt lat="48.69872" lon="1.69397">
        <ele>156.5</ele>
        <time>2015-06-15T09:31:16.000Z</time>
      </trkpt>
      <trkpt lat="48.69867" lon="1.69399">
        <ele>156.3</ele>
        <time>2015-06-15T09:31:19.000Z</time>
      </trkpt>
      <trkpt lat="48.69862" lon="1.69404">
        <ele>156.1</ele>
        <time>2015-06-15T09:31:23.000Z</time>
      </trkpt>
      <trkpt lat="48.69859" lon="1.69409">
        <ele>155.8</ele>
        <time>2015-06-15T09:31:26.000Z</time>
      </trkpt>
      <trkpt lat="48.69853" lon="1.69415">
        <ele>155.4</ele>
        <time>2015-06-15T09:31:31.000Z</time>
      </trkpt>
      <trkpt lat="48.69851" lon="1.69416">
        <ele>155.3</ele>
        <time>2015-06-15T09:31:32.000Z</time>
      </trkpt>
      <trkpt lat="48.69844" lon="1.69423">
        <ele>154.9</ele>
        <time>2015-06-15T09:31:38.000Z</time>
      </trkpt>
      <trkpt lat="48.69839" lon="1.69432">
        <ele>154.8</ele>
        <time>2015-06-15T09:31:42.000Z</time>
      </trkpt>
      <trkpt lat="48.6983" lon="1.69448">
        <ele>154.8</ele>
        <time>2015-06-15T09:31:50.000Z</time>
      </trkpt>
      <trkpt lat="48.69827" lon="1.6946">
        <ele>154.6</ele>
        <time>2015-06-15T09:31:56.000Z</time>
      </trkpt>
      <trkpt lat="48.69827" lon="1.69462">
        <ele>154.5</ele>
        <time>2015-06-15T09:31:57.000Z</time>
      </trkpt>
      <trkpt lat="48.69825" lon="1.69476">
        <ele>154.4</ele>
        <time>2015-06-15T09:32:04.000Z</time>
      </trkpt>
      <trkpt lat="48.69825" lon="1.69479">
        <ele>154.4</ele>
        <time>2015-06-15T09:32:05.000Z</time>
      </trkpt>
      <trkpt lat="48.69829" lon="1.69488">
        <ele>154.7</ele>
        <time>2015-06-15T09:32:10.000Z</time>
      </trkpt>
      <trkpt lat="48.69834" lon="1.69513">
        <ele>155</ele>
        <time>2015-06-15T09:32:18.000Z</time>
      </trkpt>
      <trkpt lat="48.69839" lon="1.69529">
        <ele>155.4</ele>
        <time>2015-06-15T09:32:23.000Z</time>
      </trkpt>
      <trkpt lat="48.69842" lon="1.69547">
        <ele>155</ele>
        <time>2015-06-15T09:32:28.000Z</time>
      </trkpt>
      <trkpt lat="48.69847" lon="1.69565">
        <ele>155</ele>
        <time>2015-06-15T09:32:32.000Z</time>
      </trkpt>
      <trkpt lat="48.69851" lon="1.69586">
        <ele>155.3</ele>
        <time>2015-06-15T09:32:36.000Z</time>
      </trkpt>
      <trkpt lat="48.69859" lon="1.69614">
        <ele>155.7</ele>
        <time>2015-06-15T09:32:41.000Z</time>
      </trkpt>
      <trkpt lat="48.69864" lon="1.69625">
        <ele>155.7</ele>
        <time>2015-06-15T09:32:43.000Z</time>
      </trkpt>
      <trkpt lat="48.69868" lon="1.69639">
        <ele>155.5</ele>
        <time>2015-06-15T09:32:45.000Z</time>
      </trkpt>
      <trkpt lat="48.69879" lon="1.69668">
        <ele>156.3</ele>
        <time>2015-06-15T09:32:50.000Z</time>
      </trkpt>
      <trkpt lat="48.69884" lon="1.69682">
        <ele>156.7</ele>
        <time>2015-06-15T09:32:52.000Z</time>
      </trkpt>
      <trkpt lat="48.69892" lon="1.69708">
        <ele>157.7</ele>
        <time>2015-06-15T09:32:56.000Z</time>
      </trkpt>
      <trkpt lat="48.69907" lon="1.69747">
        <ele>161.4</ele>
        <time>2015-06-15T09:33:01.000Z</time>
      </trkpt>
      <trkpt lat="48.69911" lon="1.69756">
        <ele>162.3</ele>
        <time>2015-06-15T09:33:02.000Z</time>
      </trkpt>
      <trkpt lat="48.69919" lon="1.69776">
        <ele>164</ele>
        <time>2015-06-15T09:33:05.000Z</time>
      </trkpt>
      <trkpt lat="48.69927" lon="1.69805">
        <ele>165</ele>
        <time>2015-06-15T09:33:10.000Z</time>
      </trkpt>
      <trkpt lat="48.6993" lon="1.69815">
        <ele>165.3</ele>
        <time>2015-06-15T09:33:12.000Z</time>
      </trkpt>
      <trkpt lat="48.69936" lon="1.69831">
        <ele>165.9</ele>
        <time>2015-06-15T09:33:15.000Z</time>
      </trkpt>
      <trkpt lat="48.69945" lon="1.69863">
        <ele>167.1</ele>
        <time>2015-06-15T09:33:20.000Z</time>
      </trkpt>
      <trkpt lat="48.69948" lon="1.69878">
        <ele>167.7</ele>
        <time>2015-06-15T09:33:23.000Z</time>
      </trkpt>
      <trkpt lat="48.69966" lon="1.69914">
        <ele>168.7</ele>
        <time>2015-06-15T09:33:30.000Z</time>
      </trkpt>
      <trkpt lat="48.6997" lon="1.69919">
        <ele>168.9</ele>
        <time>2015-06-15T09:33:31.000Z</time>
      </trkpt>
      <trkpt lat="48.6998" lon="1.69928">
        <ele>169.3</ele>
        <time>2015-06-15T09:33:33.000Z</time>
      </trkpt>
      <trkpt lat="48.69995" lon="1.69944">
        <ele>169.8</ele>
        <time>2015-06-15T09:33:36.000Z</time>
      </trkpt>
      <trkpt lat="48.70011" lon="1.69972">
        <ele>170.4</ele>
        <time>2015-06-15T09:33:41.000Z</time>
      </trkpt>
      <trkpt lat="48.70029" lon="1.70006">
        <ele>171</ele>
        <time>2015-06-15T09:33:46.000Z</time>
      </trkpt>
      <trkpt lat="48.70045" lon="1.7003">
        <ele>171.6</ele>
        <time>2015-06-15T09:33:50.000Z</time>
      </trkpt>
      <trkpt lat="48.70049" lon="1.70036">
        <ele>171.8</ele>
        <time>2015-06-15T09:33:51.000Z</time>
      </trkpt>
      <trkpt lat="48.70082" lon="1.70077">
        <ele>172</ele>
        <time>2015-06-15T09:33:58.000Z</time>
      </trkpt>
      <trkpt lat="48.70095" lon="1.70094">
        <ele>172.3</ele>
        <time>2015-06-15T09:34:01.000Z</time>
      </trkpt>
      <trkpt lat="48.70116" lon="1.70131">
        <ele>172.2</ele>
        <time>2015-06-15T09:34:06.000Z</time>
      </trkpt>
      <trkpt lat="48.70127" lon="1.70156">
        <ele>172.2</ele>
        <time>2015-06-15T09:34:09.000Z</time>
      </trkpt>
      <trkpt lat="48.70133" lon="1.70173">
        <ele>172</ele>
        <time>2015-06-15T09:34:11.000Z</time>
      </trkpt>
      <trkpt lat="48.70147" lon="1.70209">
        <ele>172.3</ele>
        <time>2015-06-15T09:34:16.000Z</time>
      </trkpt>
      <trkpt lat="48.70154" lon="1.7023">
        <ele>172.5</ele>
        <time>2015-06-15T09:34:19.000Z</time>
      </trkpt>
      <trkpt lat="48.7016" lon="1.70254">
        <ele>172.6</ele>
        <time>2015-06-15T09:34:22.000Z</time>
      </trkpt>
      <trkpt lat="48.70166" lon="1.7028">
        <ele>172</ele>
        <time>2015-06-15T09:34:25.000Z</time>
      </trkpt>
      <trkpt lat="48.70175" lon="1.70307">
        <ele>172.3</ele>
        <time>2015-06-15T09:34:29.000Z</time>
      </trkpt>
      <trkpt lat="48.70182" lon="1.70327">
        <ele>172.5</ele>
        <time>2015-06-15T09:34:32.000Z</time>
      </trkpt>
      <trkpt lat="48.70186" lon="1.70341">
        <ele>172.4</ele>
        <time>2015-06-15T09:34:34.000Z</time>
      </trkpt>
      <trkpt lat="48.70196" lon="1.70369">
        <ele>172.1</ele>
        <time>2015-06-15T09:34:38.000Z</time>
      </trkpt>
      <trkpt lat="48.7021" lon="1.7041">
        <ele>172.7</ele>
        <time>2015-06-15T09:34:44.000Z</time>
      </trkpt>
      <trkpt lat="48.70223" lon="1.70443">
        <ele>173</ele>
        <time>2015-06-15T09:34:49.000Z</time>
      </trkpt>
      <trkpt lat="48.70232" lon="1.70475">
        <ele>173.3</ele>
        <time>2015-06-15T09:34:53.000Z</time>
      </trkpt>
      <trkpt lat="48.70241" lon="1.70503">
        <ele>172.7</ele>
        <time>2015-06-15T09:34:57.000Z</time>
      </trkpt>
      <trkpt lat="48.70258" lon="1.70547">
        <ele>173.3</ele>
        <time>2015-06-15T09:35:04.000Z</time>
      </trkpt>
      <trkpt lat="48.70267" lon="1.70575">
        <ele>173.6</ele>
        <time>2015-06-15T09:35:08.000Z</time>
      </trkpt>
      <trkpt lat="48.70284" lon="1.70618">
        <ele>174.4</ele>
        <time>2015-06-15T09:35:15.000Z</time>
      </trkpt>
      <trkpt lat="48.70287" lon="1.70625">
        <ele>174.7</ele>
        <time>2015-06-15T09:35:16.000Z</time>
      </trkpt>
      <trkpt lat="48.70296" lon="1.70659">
        <ele>175</ele>
        <time>2015-06-15T09:35:21.000Z</time>
      </trkpt>
      <trkpt lat="48.703" lon="1.70673">
        <ele>175</ele>
        <time>2015-06-15T09:35:23.000Z</time>
      </trkpt>
      <trkpt lat="48.70307" lon="1.70694">
        <ele>175.1</ele>
        <time>2015-06-15T09:35:27.000Z</time>
      </trkpt>
      <trkpt lat="48.70313" lon="1.70716">
        <ele>176.1</ele>
        <time>2015-06-15T09:35:31.000Z</time>
      </trkpt>
      <trkpt lat="48.70326" lon="1.70749">
        <ele>176</ele>
        <time>2015-06-15T09:35:38.000Z</time>
      </trkpt>
      <trkpt lat="48.70334" lon="1.70771">
        <ele>176</ele>
        <time>2015-06-15T09:35:43.000Z</time>
      </trkpt>
      <trkpt lat="48.70342" lon="1.70796">
        <ele>176.3</ele>
        <time>2015-06-15T09:35:48.000Z</time>
      </trkpt>
      <trkpt lat="48.70351" lon="1.70819">
        <ele>176.8</ele>
        <time>2015-06-15T09:35:53.000Z</time>
      </trkpt>
      <trkpt lat="48.70361" lon="1.70848">
        <ele>177</ele>
        <time>2015-06-15T09:35:59.000Z</time>
      </trkpt>
      <trkpt lat="48.70371" lon="1.7088">
        <ele>177.1</ele>
        <time>2015-06-15T09:36:05.000Z</time>
      </trkpt>
      <trkpt lat="48.70379" lon="1.70903">
        <ele>177</ele>
        <time>2015-06-15T09:36:10.000Z</time>
      </trkpt>
      <trkpt lat="48.70388" lon="1.70925">
        <ele>177.3</ele>
        <time>2015-06-15T09:36:15.000Z</time>
      </trkpt>
      <trkpt lat="48.70397" lon="1.70954">
        <ele>178</ele>
        <time>2015-06-15T09:36:21.000Z</time>
      </trkpt>
      <trkpt lat="48.70408" lon="1.70983">
        <ele>178</ele>
        <time>2015-06-15T09:36:27.000Z</time>
      </trkpt>
      <trkpt lat="48.70417" lon="1.71009">
        <ele>178</ele>
        <time>2015-06-15T09:36:32.000Z</time>
      </trkpt>
      <trkpt lat="48.70429" lon="1.71036">
        <ele>178.3</ele>
        <time>2015-06-15T09:36:38.000Z</time>
      </trkpt>
      <trkpt lat="48.70438" lon="1.7106">
        <ele>178</ele>
        <time>2015-06-15T09:36:43.000Z</time>
      </trkpt>
      <trkpt lat="48.70448" lon="1.71092">
        <ele>178.4</ele>
        <time>2015-06-15T09:36:49.000Z</time>
      </trkpt>
      <trkpt lat="48.70456" lon="1.71119">
        <ele>179</ele>
        <time>2015-06-15T09:36:55.000Z</time>
      </trkpt>
      <trkpt lat="48.70463" lon="1.71128">
        <ele>179</ele>
        <time>2015-06-15T09:37:00.000Z</time>
      </trkpt>
      <trkpt lat="48.70467" lon="1.71134">
        <ele>179</ele>
        <time>2015-06-15T09:37:04.000Z</time>
      </trkpt>
      <trkpt lat="48.70474" lon="1.7114">
        <ele>179</ele>
        <time>2015-06-15T09:37:09.000Z</time>
      </trkpt>
      <trkpt lat="48.70477" lon="1.71148">
        <ele>179.1</ele>
        <time>2015-06-15T09:37:13.000Z</time>
      </trkpt>
      <trkpt lat="48.70479" lon="1.71153">
        <ele>179.1</ele>
        <time>2015-06-15T09:37:15.000Z</time>
      </trkpt>
      <trkpt lat="48.70483" lon="1.71167">
        <ele>179.4</ele>
        <time>2015-06-15T09:37:21.000Z</time>
      </trkpt>
      <trkpt lat="48.70488" lon="1.7118">
        <ele>179.3</ele>
        <time>2015-06-15T09:37:28.000Z</time>
      </trkpt>
      <trkpt lat="48.70489" lon="1.71194">
        <ele>179</ele>
        <time>2015-06-15T09:37:34.000Z</time>
      </trkpt>
      <trkpt lat="48.70489" lon="1.712">
        <ele>179</ele>
        <time>2015-06-15T09:37:37.000Z</time>
      </trkpt>
      <trkpt lat="48.70485" lon="1.71215">
        <ele>179</ele>
        <time>2015-06-15T09:37:43.000Z</time>
      </trkpt>
      <trkpt lat="48.7048" lon="1.71232">
        <ele>179</ele>
        <time>2015-06-15T09:37:50.000Z</time>
      </trkpt>
      <trkpt lat="48.70478" lon="1.71242">
        <ele>179</ele>
        <time>2015-06-15T09:37:54.000Z</time>
      </trkpt>
      <trkpt lat="48.70478" lon="1.71246">
        <ele>179</ele>
        <time>2015-06-15T09:37:59.000Z</time>
      </trkpt>
      <trkpt lat="48.70478" lon="1.7125">
        <ele>179</ele>
        <time>2015-06-15T09:38:01.000Z</time>
      </trkpt>
      <trkpt lat="48.70476" lon="1.7126">
        <ele>179</ele>
        <time>2015-06-15T09:38:06.000Z</time>
      </trkpt>
      <trkpt lat="48.70476" lon="1.71266">
        <ele>179</ele>
        <time>2015-06-15T09:38:09.000Z</time>
      </trkpt>
      <trkpt lat="48.70476" lon="1.71271">
        <ele>179</ele>
        <time>2015-06-15T09:38:11.000Z</time>
      </trkpt>
      <trkpt lat="48.70472" lon="1.71282">
        <ele>178.9</ele>
        <time>2015-06-15T09:38:15.000Z</time>
      </trkpt>
      <trkpt lat="48.70469" lon="1.71294">
        <ele>178.5</ele>
        <time>2015-06-15T09:38:21.000Z</time>
      </trkpt>
      <trkpt lat="48.7047" lon="1.71298">
        <ele>178.3</ele>
        <time>2015-06-15T09:38:23.000Z</time>
      </trkpt>
      <trkpt lat="48.70467" lon="1.71311">
        <ele>178.2</ele>
        <time>2015-06-15T09:38:28.000Z</time>
      </trkpt>
      <trkpt lat="48.70464" lon="1.71321">
        <ele>178.1</ele>
        <time>2015-06-15T09:38:33.000Z</time>
      </trkpt>
      <trkpt lat="48.70463" lon="1.71324">
        <ele>178.1</ele>
        <time>2015-06-15T09:38:34.000Z</time>
      </trkpt>
      <trkpt lat="48.70461" lon="1.7133">
        <ele>178</ele>
        <time>2015-06-15T09:38:37.000Z</time>
      </trkpt>
      <trkpt lat="48.7046" lon="1.71339">
        <ele>178</ele>
        <time>2015-06-15T09:38:41.000Z</time>
      </trkpt>
      <trkpt lat="48.70459" lon="1.7135">
        <ele>178</ele>
        <time>2015-06-15T09:38:47.000Z</time>
      </trkpt>
      <trkpt lat="48.70456" lon="1.71367">
        <ele>178</ele>
        <time>2015-06-15T09:38:55.000Z</time>
      </trkpt>
      <trkpt lat="48.70452" lon="1.71384">
        <ele>178</ele>
        <time>2015-06-15T09:39:02.000Z</time>
      </trkpt>
      <trkpt lat="48.7045" lon="1.71399">
        <ele>178</ele>
        <time>2015-06-15T09:39:08.000Z</time>
      </trkpt>
      <trkpt lat="48.7045" lon="1.71404">
        <ele>178</ele>
        <time>2015-06-15T09:39:10.000Z</time>
      </trkpt>
      <trkpt lat="48.70446" lon="1.71419">
        <ele>178</ele>
        <time>2015-06-15T09:39:17.000Z</time>
      </trkpt>
      <trkpt lat="48.70441" lon="1.71429">
        <ele>178.1</ele>
        <time>2015-06-15T09:39:24.000Z</time>
      </trkpt>
      <trkpt lat="48.70439" lon="1.71442">
        <ele>178</ele>
        <time>2015-06-15T09:39:30.000Z</time>
      </trkpt>
      <trkpt lat="48.70436" lon="1.71456">
        <ele>178</ele>
        <time>2015-06-15T09:39:36.000Z</time>
      </trkpt>
      <trkpt lat="48.70435" lon="1.7146">
        <ele>178</ele>
        <time>2015-06-15T09:39:38.000Z</time>
      </trkpt>
      <trkpt lat="48.70433" lon="1.71471">
        <ele>178</ele>
        <time>2015-06-15T09:39:43.000Z</time>
      </trkpt>
      <trkpt lat="48.7043" lon="1.71492">
        <ele>177.3</ele>
        <time>2015-06-15T09:39:49.000Z</time>
      </trkpt>
      <trkpt lat="48.7043" lon="1.71494">
        <ele>177.2</ele>
        <time>2015-06-15T09:39:50.000Z</time>
      </trkpt>
      <trkpt lat="48.7043" lon="1.71503">
        <ele>177</ele>
        <time>2015-06-15T09:39:53.000Z</time>
      </trkpt>
      <trkpt lat="48.70427" lon="1.71514">
        <ele>177</ele>
        <time>2015-06-15T09:39:58.000Z</time>
      </trkpt>
      <trkpt lat="48.70424" lon="1.71532">
        <ele>176.9</ele>
        <time>2015-06-15T09:40:05.000Z</time>
      </trkpt>
      <trkpt lat="48.7042" lon="1.71542">
        <ele>176.5</ele>
        <time>2015-06-15T09:40:11.000Z</time>
      </trkpt>
      <trkpt lat="48.70417" lon="1.71555">
        <ele>176.1</ele>
        <time>2015-06-15T09:40:17.000Z</time>
      </trkpt>
      <trkpt lat="48.70413" lon="1.71572">
        <ele>176.5</ele>
        <time>2015-06-15T09:40:25.000Z</time>
      </trkpt>
      <trkpt lat="48.70408" lon="1.71589">
        <ele>176.7</ele>
        <time>2015-06-15T09:40:32.000Z</time>
      </trkpt>
      <trkpt lat="48.70407" lon="1.71594">
        <ele>176.7</ele>
        <time>2015-06-15T09:40:34.000Z</time>
      </trkpt>
      <trkpt lat="48.70405" lon="1.71613">
        <ele>176.6</ele>
        <time>2015-06-15T09:40:42.000Z</time>
      </trkpt>
      <trkpt lat="48.70404" lon="1.71618">
        <ele>176.8</ele>
        <time>2015-06-15T09:40:44.000Z</time>
      </trkpt>
      <trkpt lat="48.70404" lon="1.71631">
        <ele>177.3</ele>
        <time>2015-06-15T09:40:50.000Z</time>
      </trkpt>
      <trkpt lat="48.70404" lon="1.71646">
        <ele>177.7</ele>
        <time>2015-06-15T09:40:56.000Z</time>
      </trkpt>
      <trkpt lat="48.70401" lon="1.71653">
        <ele>177.7</ele>
        <time>2015-06-15T09:41:01.000Z</time>
      </trkpt>
      <trkpt lat="48.70401" lon="1.71669">
        <ele>178</ele>
        <time>2015-06-15T09:41:08.000Z</time>
      </trkpt>
      <trkpt lat="48.70401" lon="1.71671">
        <ele>178</ele>
        <time>2015-06-15T09:41:09.000Z</time>
      </trkpt>
      <trkpt lat="48.70399" lon="1.71681">
        <ele>178</ele>
        <time>2015-06-15T09:41:14.000Z</time>
      </trkpt>
      <trkpt lat="48.70395" lon="1.717">
        <ele>178</ele>
        <time>2015-06-15T09:41:21.000Z</time>
      </trkpt>
      <trkpt lat="48.70394" lon="1.71707">
        <ele>178.1</ele>
        <time>2015-06-15T09:41:24.000Z</time>
      </trkpt>
      <trkpt lat="48.70389" lon="1.71724">
        <ele>178</ele>
        <time>2015-06-15T09:41:30.000Z</time>
      </trkpt>
      <trkpt lat="48.70389" lon="1.7173">
        <ele>178</ele>
        <time>2015-06-15T09:41:32.000Z</time>
      </trkpt>
      <trkpt lat="48.70388" lon="1.71736">
        <ele>178</ele>
        <time>2015-06-15T09:41:34.000Z</time>
      </trkpt>
      <trkpt lat="48.70385" lon="1.71751">
        <ele>178</ele>
        <time>2015-06-15T09:41:41.000Z</time>
      </trkpt>
      <trkpt lat="48.70383" lon="1.71759">
        <ele>178</ele>
        <time>2015-06-15T09:41:46.000Z</time>
      </trkpt>
      <trkpt lat="48.70384" lon="1.71764">
        <ele>178</ele>
        <time>2015-06-15T09:41:48.000Z</time>
      </trkpt>
      <trkpt lat="48.70377" lon="1.71778">
        <ele>178</ele>
        <time>2015-06-15T09:41:55.000Z</time>
      </trkpt>
      <trkpt lat="48.70376" lon="1.7178">
        <ele>178</ele>
        <time>2015-06-15T09:41:56.000Z</time>
      </trkpt>
      <trkpt lat="48.70375" lon="1.71784">
        <ele>178</ele>
        <time>2015-06-15T09:41:58.000Z</time>
      </trkpt>
      <trkpt lat="48.70373" lon="1.71793">
        <ele>178</ele>
        <time>2015-06-15T09:42:02.000Z</time>
      </trkpt>
      <trkpt lat="48.70371" lon="1.71802">
        <ele>178</ele>
        <time>2015-06-15T09:42:07.000Z</time>
      </trkpt>
      <trkpt lat="48.70364" lon="1.71816">
        <ele>178</ele>
        <time>2015-06-15T09:42:14.000Z</time>
      </trkpt>
      <trkpt lat="48.70362" lon="1.71824">
        <ele>178</ele>
        <time>2015-06-15T09:42:17.000Z</time>
      </trkpt>
      <trkpt lat="48.70358" lon="1.71843">
        <ele>177.9</ele>
        <time>2015-06-15T09:42:24.000Z</time>
      </trkpt>
      <trkpt lat="48.70352" lon="1.71859">
        <ele>177.7</ele>
        <time>2015-06-15T09:42:31.000Z</time>
      </trkpt>
      <trkpt lat="48.7035" lon="1.71865">
        <ele>177.6</ele>
        <time>2015-06-15T09:42:34.000Z</time>
      </trkpt>
      <trkpt lat="48.70351" lon="1.71876">
        <ele>177.6</ele>
        <time>2015-06-15T09:42:38.000Z</time>
      </trkpt>
      <trkpt lat="48.70347" lon="1.71898">
        <ele>177.5</ele>
        <time>2015-06-15T09:42:46.000Z</time>
      </trkpt>
      <trkpt lat="48.70346" lon="1.71903">
        <ele>177.4</ele>
        <time>2015-06-15T09:42:48.000Z</time>
      </trkpt>
      <trkpt lat="48.70344" lon="1.71908">
        <ele>177.4</ele>
        <time>2015-06-15T09:42:53.000Z</time>
      </trkpt>
      <trkpt lat="48.70344" lon="1.71918">
        <ele>177.4</ele>
        <time>2015-06-15T09:42:58.000Z</time>
      </trkpt>
      <trkpt lat="48.70342" lon="1.71939">
        <ele>177.3</ele>
        <time>2015-06-15T09:43:06.000Z</time>
      </trkpt>
      <trkpt lat="48.70337" lon="1.71951">
        <ele>177.1</ele>
        <time>2015-06-15T09:43:12.000Z</time>
      </trkpt>
      <trkpt lat="48.70338" lon="1.71962">
        <ele>177.2</ele>
        <time>2015-06-15T09:43:17.000Z</time>
      </trkpt>
      <trkpt lat="48.70335" lon="1.71977">
        <ele>177.1</ele>
        <time>2015-06-15T09:43:21.000Z</time>
      </trkpt>
      <trkpt lat="48.70332" lon="1.71988">
        <ele>177</ele>
        <time>2015-06-15T09:43:25.000Z</time>
      </trkpt>
      <trkpt lat="48.70327" lon="1.7201">
        <ele>176.8</ele>
        <time>2015-06-15T09:43:33.000Z</time>
      </trkpt>
      <trkpt lat="48.70323" lon="1.72025">
        <ele>176.6</ele>
        <time>2015-06-15T09:43:39.000Z</time>
      </trkpt>
      <trkpt lat="48.70318" lon="1.72035">
        <ele>176.4</ele>
        <time>2015-06-15T09:43:45.000Z</time>
      </trkpt>
      <trkpt lat="48.70313" lon="1.7205">
        <ele>176.3</ele>
        <time>2015-06-15T09:43:52.000Z</time>
      </trkpt>
      <trkpt lat="48.70311" lon="1.72061">
        <ele>176.2</ele>
        <time>2015-06-15T09:43:57.000Z</time>
      </trkpt>
      <trkpt lat="48.70309" lon="1.72072">
        <ele>176.1</ele>
        <time>2015-06-15T09:44:02.000Z</time>
      </trkpt>
      <trkpt lat="48.70307" lon="1.72082">
        <ele>176</ele>
        <time>2015-06-15T09:44:06.000Z</time>
      </trkpt>
      <trkpt lat="48.70306" lon="1.72093">
        <ele>176</ele>
        <time>2015-06-15T09:44:12.000Z</time>
      </trkpt>
      <trkpt lat="48.70304" lon="1.7211">
        <ele>175.9</ele>
        <time>2015-06-15T09:44:18.000Z</time>
      </trkpt>
      <trkpt lat="48.70301" lon="1.72124">
        <ele>175.8</ele>
        <time>2015-06-15T09:44:24.000Z</time>
      </trkpt>
      <trkpt lat="48.70299" lon="1.72127">
        <ele>175.8</ele>
        <time>2015-06-15T09:44:29.000Z</time>
      </trkpt>
      <trkpt lat="48.70296" lon="1.72135">
        <ele>175.7</ele>
        <time>2015-06-15T09:44:35.000Z</time>
      </trkpt>
      <trkpt lat="48.70294" lon="1.72149">
        <ele>175.6</ele>
        <time>2015-06-15T09:44:41.000Z</time>
      </trkpt>
      <trkpt lat="48.70293" lon="1.72162">
        <ele>175.6</ele>
        <time>2015-06-15T09:44:47.000Z</time>
      </trkpt>
      <trkpt lat="48.70291" lon="1.72167">
        <ele>175.5</ele>
        <time>2015-06-15T09:44:50.000Z</time>
      </trkpt>
      <trkpt lat="48.70282" lon="1.72186">
        <ele>175.3</ele>
        <time>2015-06-15T09:44:57.000Z</time>
      </trkpt>
      <trkpt lat="48.70278" lon="1.72201">
        <ele>175.2</ele>
        <time>2015-06-15T09:45:03.000Z</time>
      </trkpt>
      <trkpt lat="48.70277" lon="1.72212">
        <ele>175.6</ele>
        <time>2015-06-15T09:45:08.000Z</time>
      </trkpt>
      <trkpt lat="48.70276" lon="1.72224">
        <ele>175.9</ele>
        <time>2015-06-15T09:45:14.000Z</time>
      </trkpt>
      <trkpt lat="48.70275" lon="1.72231">
        <ele>175.9</ele>
        <time>2015-06-15T09:45:17.000Z</time>
      </trkpt>
      <trkpt lat="48.70273" lon="1.7224">
        <ele>175.8</ele>
        <time>2015-06-15T09:45:21.000Z</time>
      </trkpt>
      <trkpt lat="48.70272" lon="1.72253">
        <ele>175.8</ele>
        <time>2015-06-15T09:45:27.000Z</time>
      </trkpt>
      <trkpt lat="48.70272" lon="1.72255">
        <ele>175.8</ele>
        <time>2015-06-15T09:45:28.000Z</time>
      </trkpt>
      <trkpt lat="48.70269" lon="1.72271">
        <ele>175.7</ele>
        <time>2015-06-15T09:45:35.000Z</time>
      </trkpt>
      <trkpt lat="48.70268" lon="1.72279">
        <ele>175.7</ele>
        <time>2015-06-15T09:45:40.000Z</time>
      </trkpt>
      <trkpt lat="48.70266" lon="1.72283">
        <ele>175.6</ele>
        <time>2015-06-15T09:45:42.000Z</time>
      </trkpt>
      <trkpt lat="48.70262" lon="1.72298">
        <ele>175.9</ele>
        <time>2015-06-15T09:45:49.000Z</time>
      </trkpt>
      <trkpt lat="48.70262" lon="1.723">
        <ele>175.9</ele>
        <time>2015-06-15T09:45:50.000Z</time>
      </trkpt>
      <trkpt lat="48.70258" lon="1.72314">
        <ele>176</ele>
        <time>2015-06-15T09:45:56.000Z</time>
      </trkpt>
      <trkpt lat="48.70256" lon="1.72329">
        <ele>176</ele>
        <time>2015-06-15T09:46:02.000Z</time>
      </trkpt>
      <trkpt lat="48.70252" lon="1.72341">
        <ele>176</ele>
        <time>2015-06-15T09:46:07.000Z</time>
      </trkpt>
      <trkpt lat="48.70251" lon="1.72346">
        <ele>176</ele>
        <time>2015-06-15T09:46:11.000Z</time>
      </trkpt>
      <trkpt lat="48.70249" lon="1.72355">
        <ele>176</ele>
        <time>2015-06-15T09:46:15.000Z</time>
      </trkpt>
      <trkpt lat="48.70247" lon="1.72369">
        <ele>176</ele>
        <time>2015-06-15T09:46:21.000Z</time>
      </trkpt>
      <trkpt lat="48.70245" lon="1.72382">
        <ele>176</ele>
        <time>2015-06-15T09:46:25.000Z</time>
      </trkpt>
      <trkpt lat="48.7024" lon="1.72395">
        <ele>176</ele>
        <time>2015-06-15T09:46:29.000Z</time>
      </trkpt>
      <trkpt lat="48.70234" lon="1.72409">
        <ele>176</ele>
        <time>2015-06-15T09:46:35.000Z</time>
      </trkpt>
      <trkpt lat="48.7023" lon="1.72428">
        <ele>176</ele>
        <time>2015-06-15T09:46:43.000Z</time>
      </trkpt>
      <trkpt lat="48.7023" lon="1.7243">
        <ele>176</ele>
        <time>2015-06-15T09:46:44.000Z</time>
      </trkpt>
      <trkpt lat="48.70227" lon="1.72446">
        <ele>176</ele>
        <time>2015-06-15T09:46:50.000Z</time>
      </trkpt>
      <trkpt lat="48.70221" lon="1.72464">
        <ele>176</ele>
        <time>2015-06-15T09:46:58.000Z</time>
      </trkpt>
      <trkpt lat="48.70218" lon="1.72485">
        <ele>176</ele>
        <time>2015-06-15T09:47:08.000Z</time>
      </trkpt>
      <trkpt lat="48.70216" lon="1.72495">
        <ele>176</ele>
        <time>2015-06-15T09:47:13.000Z</time>
      </trkpt>
      <trkpt lat="48.70212" lon="1.72513">
        <ele>176</ele>
        <time>2015-06-15T09:47:22.000Z</time>
      </trkpt>
      <trkpt lat="48.7021" lon="1.72523">
        <ele>176</ele>
        <time>2015-06-15T09:47:27.000Z</time>
      </trkpt>
      <trkpt lat="48.70208" lon="1.72534">
        <ele>175.9</ele>
        <time>2015-06-15T09:47:33.000Z</time>
      </trkpt>
      <trkpt lat="48.70207" lon="1.72538">
        <ele>175.8</ele>
        <time>2015-06-15T09:47:38.000Z</time>
      </trkpt>
      <trkpt lat="48.70206" lon="1.72547">
        <ele>175.6</ele>
        <time>2015-06-15T09:47:44.000Z</time>
      </trkpt>
      <trkpt lat="48.70201" lon="1.72564">
        <ele>175.2</ele>
        <time>2015-06-15T09:47:50.000Z</time>
      </trkpt>
      <trkpt lat="48.70199" lon="1.72577">
        <ele>175</ele>
        <time>2015-06-15T09:47:56.000Z</time>
      </trkpt>
      <trkpt lat="48.70198" lon="1.72581">
        <ele>175</ele>
        <time>2015-06-15T09:47:58.000Z</time>
      </trkpt>
      <trkpt lat="48.70196" lon="1.72596">
        <ele>175</ele>
        <time>2015-06-15T09:48:05.000Z</time>
      </trkpt>
      <trkpt lat="48.70193" lon="1.72611">
        <ele>174.9</ele>
        <time>2015-06-15T09:48:12.000Z</time>
      </trkpt>
      <trkpt lat="48.7019" lon="1.72625">
        <ele>174.4</ele>
        <time>2015-06-15T09:48:18.000Z</time>
      </trkpt>
      <trkpt lat="48.70187" lon="1.7264">
        <ele>173.9</ele>
        <time>2015-06-15T09:48:25.000Z</time>
      </trkpt>
      <trkpt lat="48.70183" lon="1.72655">
        <ele>173.4</ele>
        <time>2015-06-15T09:48:31.000Z</time>
      </trkpt>
      <trkpt lat="48.70179" lon="1.72673">
        <ele>173.1</ele>
        <time>2015-06-15T09:48:38.000Z</time>
      </trkpt>
      <trkpt lat="48.70176" lon="1.72689">
        <ele>173.3</ele>
        <time>2015-06-15T09:48:45.000Z</time>
      </trkpt>
      <trkpt lat="48.70173" lon="1.72699">
        <ele>173.2</ele>
        <time>2015-06-15T09:48:49.000Z</time>
      </trkpt>
      <trkpt lat="48.70167" lon="1.72718">
        <ele>173</ele>
        <time>2015-06-15T09:48:58.000Z</time>
      </trkpt>
      <trkpt lat="48.70164" lon="1.72725">
        <ele>172.8</ele>
        <time>2015-06-15T09:49:01.000Z</time>
      </trkpt>
      <trkpt lat="48.70161" lon="1.72737">
        <ele>172.7</ele>
        <time>2015-06-15T09:49:06.000Z</time>
      </trkpt>
      <trkpt lat="48.70157" lon="1.72747">
        <ele>172.6</ele>
        <time>2015-06-15T09:49:11.000Z</time>
      </trkpt>
      <trkpt lat="48.70148" lon="1.72774">
        <ele>172.3</ele>
        <time>2015-06-15T09:49:20.000Z</time>
      </trkpt>
      <trkpt lat="48.70144" lon="1.72788">
        <ele>172.2</ele>
        <time>2015-06-15T09:49:27.000Z</time>
      </trkpt>
      <trkpt lat="48.7014" lon="1.72804">
        <ele>172</ele>
        <time>2015-06-15T09:49:35.000Z</time>
      </trkpt>
      <trkpt lat="48.70139" lon="1.72808">
        <ele>172</ele>
        <time>2015-06-15T09:49:37.000Z</time>
      </trkpt>
      <trkpt lat="48.70133" lon="1.72826">
        <ele>171.8</ele>
        <time>2015-06-15T09:49:44.000Z</time>
      </trkpt>
      <trkpt lat="48.70126" lon="1.72841">
        <ele>171.8</ele>
        <time>2015-06-15T09:49:51.000Z</time>
      </trkpt>
      <trkpt lat="48.70122" lon="1.72856">
        <ele>172.2</ele>
        <time>2015-06-15T09:49:58.000Z</time>
      </trkpt>
      <trkpt lat="48.70119" lon="1.7287">
        <ele>172.3</ele>
        <time>2015-06-15T09:50:05.000Z</time>
      </trkpt>
      <trkpt lat="48.70114" lon="1.72887">
        <ele>172.1</ele>
        <time>2015-06-15T09:50:13.000Z</time>
      </trkpt>
      <trkpt lat="48.70108" lon="1.72905">
        <ele>172.5</ele>
        <time>2015-06-15T09:50:21.000Z</time>
      </trkpt>
      <trkpt lat="48.70101" lon="1.72924">
        <ele>172.7</ele>
        <time>2015-06-15T09:50:29.000Z</time>
      </trkpt>
      <trkpt lat="48.70097" lon="1.72936">
        <ele>172.8</ele>
        <time>2015-06-15T09:50:35.000Z</time>
      </trkpt>
      <trkpt lat="48.70088" lon="1.72961">
        <ele>173</ele>
        <time>2015-06-15T09:50:48.000Z</time>
      </trkpt>
      <trkpt lat="48.70083" lon="1.72976">
        <ele>173</ele>
        <time>2015-06-15T09:50:55.000Z</time>
      </trkpt>
      <trkpt lat="48.70077" lon="1.72991">
        <ele>172.9</ele>
        <time>2015-06-15T09:51:02.000Z</time>
      </trkpt>
      <trkpt lat="48.70069" lon="1.73012">
        <ele>173</ele>
        <time>2015-06-15T09:51:09.000Z</time>
      </trkpt>
      <trkpt lat="48.70063" lon="1.73031">
        <ele>172.9</ele>
        <time>2015-06-15T09:51:17.000Z</time>
      </trkpt>
      <trkpt lat="48.70059" lon="1.73044">
        <ele>172.5</ele>
        <time>2015-06-15T09:51:24.000Z</time>
      </trkpt>
      <trkpt lat="48.70058" lon="1.73053">
        <ele>172.2</ele>
        <time>2015-06-15T09:51:29.000Z</time>
      </trkpt>
      <trkpt lat="48.70057" lon="1.73067">
        <ele>172</ele>
        <time>2015-06-15T09:51:35.000Z</time>
      </trkpt>
      <trkpt lat="48.70056" lon="1.73069">
        <ele>172</ele>
        <time>2015-06-15T09:51:36.000Z</time>
      </trkpt>
      <trkpt lat="48.70048" lon="1.73089">
        <ele>172</ele>
        <time>2015-06-15T09:51:44.000Z</time>
      </trkpt>
      <trkpt lat="48.70046" lon="1.73095">
        <ele>172</ele>
        <time>2015-06-15T09:51:50.000Z</time>
      </trkpt>
      <trkpt lat="48.70047" lon="1.73097">
        <ele>172</ele>
        <time>2015-06-15T09:52:05.000Z</time>
      </trkpt>
      <trkpt lat="48.70045" lon="1.73101">
        <ele>172</ele>
        <time>2015-06-15T09:52:06.000Z</time>
      </trkpt>
      <trkpt lat="48.70041" lon="1.7311">
        <ele>172</ele>
        <time>2015-06-15T09:52:11.000Z</time>
      </trkpt>
      <trkpt lat="48.70041" lon="1.73112">
        <ele>172</ele>
        <time>2015-06-15T09:52:12.000Z</time>
      </trkpt>
      <trkpt lat="48.70034" lon="1.73131">
        <ele>171.5</ele>
        <time>2015-06-15T09:52:20.000Z</time>
      </trkpt>
      <trkpt lat="48.7003" lon="1.73142">
        <ele>171.1</ele>
        <time>2015-06-15T09:52:25.000Z</time>
      </trkpt>
      <trkpt lat="48.70028" lon="1.7315">
        <ele>171</ele>
        <time>2015-06-15T09:52:29.000Z</time>
      </trkpt>
      <trkpt lat="48.70025" lon="1.73165">
        <ele>171</ele>
        <time>2015-06-15T09:52:35.000Z</time>
      </trkpt>
      <trkpt lat="48.70024" lon="1.73168">
        <ele>171</ele>
        <time>2015-06-15T09:52:36.000Z</time>
      </trkpt>
      <trkpt lat="48.70015" lon="1.73181">
        <ele>170.8</ele>
        <time>2015-06-15T09:52:43.000Z</time>
      </trkpt>
      <trkpt lat="48.70012" lon="1.73186">
        <ele>170.6</ele>
        <time>2015-06-15T09:52:46.000Z</time>
      </trkpt>
      <trkpt lat="48.70007" lon="1.73196">
        <ele>170.2</ele>
        <time>2015-06-15T09:52:51.000Z</time>
      </trkpt>
      <trkpt lat="48.70002" lon="1.7321">
        <ele>170.1</ele>
        <time>2015-06-15T09:52:58.000Z</time>
      </trkpt>
      <trkpt lat="48.69996" lon="1.73223">
        <ele>170.1</ele>
        <time>2015-06-15T09:53:04.000Z</time>
      </trkpt>
      <trkpt lat="48.6999" lon="1.7323">
        <ele>170.3</ele>
        <time>2015-06-15T09:53:09.000Z</time>
      </trkpt>
      <trkpt lat="48.69982" lon="1.73242">
        <ele>170.2</ele>
        <time>2015-06-15T09:53:16.000Z</time>
      </trkpt>
      <trkpt lat="48.69975" lon="1.73254">
        <ele>170</ele>
        <time>2015-06-15T09:53:22.000Z</time>
      </trkpt>
      <trkpt lat="48.69969" lon="1.73271">
        <ele>170</ele>
        <time>2015-06-15T09:53:28.000Z</time>
      </trkpt>
      <trkpt lat="48.69968" lon="1.73272">
        <ele>170</ele>
        <time>2015-06-15T09:53:29.000Z</time>
      </trkpt>
      <trkpt lat="48.69962" lon="1.73283">
        <ele>170</ele>
        <time>2015-06-15T09:53:34.000Z</time>
      </trkpt>
      <trkpt lat="48.69961" lon="1.73285">
        <ele>170</ele>
        <time>2015-06-15T09:53:35.000Z</time>
      </trkpt>
      <trkpt lat="48.69954" lon="1.73299">
        <ele>170</ele>
        <time>2015-06-15T09:53:41.000Z</time>
      </trkpt>
      <trkpt lat="48.69949" lon="1.73311">
        <ele>170</ele>
        <time>2015-06-15T09:53:47.000Z</time>
      </trkpt>
      <trkpt lat="48.69945" lon="1.73319">
        <ele>170</ele>
        <time>2015-06-15T09:53:52.000Z</time>
      </trkpt>
      <trkpt lat="48.69941" lon="1.73327">
        <ele>170</ele>
        <time>2015-06-15T09:53:57.000Z</time>
      </trkpt>
      <trkpt lat="48.69936" lon="1.73336">
        <ele>170</ele>
        <time>2015-06-15T09:54:01.000Z</time>
      </trkpt>
      <trkpt lat="48.69931" lon="1.73343">
        <ele>170</ele>
        <time>2015-06-15T09:54:05.000Z</time>
      </trkpt>
      <trkpt lat="48.69925" lon="1.73356">
        <ele>170</ele>
        <time>2015-06-15T09:54:12.000Z</time>
      </trkpt>
      <trkpt lat="48.69923" lon="1.73358">
        <ele>170</ele>
        <time>2015-06-15T09:54:13.000Z</time>
      </trkpt>
      <trkpt lat="48.69921" lon="1.73365">
        <ele>169.9</ele>
        <time>2015-06-15T09:54:17.000Z</time>
      </trkpt>
      <trkpt lat="48.69916" lon="1.7338">
        <ele>169.3</ele>
        <time>2015-06-15T09:54:24.000Z</time>
      </trkpt>
      <trkpt lat="48.6991" lon="1.7339">
        <ele>169</ele>
        <time>2015-06-15T09:54:30.000Z</time>
      </trkpt>
      <trkpt lat="48.69906" lon="1.73402">
        <ele>169</ele>
        <time>2015-06-15T09:54:36.000Z</time>
      </trkpt>
      <trkpt lat="48.69901" lon="1.73414">
        <ele>169</ele>
        <time>2015-06-15T09:54:42.000Z</time>
      </trkpt>
      <trkpt lat="48.69896" lon="1.73424">
        <ele>169</ele>
        <time>2015-06-15T09:54:48.000Z</time>
      </trkpt>
      <trkpt lat="48.69888" lon="1.73435">
        <ele>169</ele>
        <time>2015-06-15T09:54:54.000Z</time>
      </trkpt>
      <trkpt lat="48.69886" lon="1.73437">
        <ele>169</ele>
        <time>2015-06-15T09:54:56.000Z</time>
      </trkpt>
      <trkpt lat="48.69881" lon="1.73449">
        <ele>169</ele>
        <time>2015-06-15T09:55:02.000Z</time>
      </trkpt>
      <trkpt lat="48.69876" lon="1.7346">
        <ele>169</ele>
        <time>2015-06-15T09:55:08.000Z</time>
      </trkpt>
      <trkpt lat="48.69872" lon="1.73469">
        <ele>169</ele>
        <time>2015-06-15T09:55:13.000Z</time>
      </trkpt>
      <trkpt lat="48.69866" lon="1.73481">
        <ele>169</ele>
        <time>2015-06-15T09:55:20.000Z</time>
      </trkpt>
      <trkpt lat="48.69862" lon="1.73489">
        <ele>169</ele>
        <time>2015-06-15T09:55:26.000Z</time>
      </trkpt>
      <trkpt lat="48.69855" lon="1.73498">
        <ele>169</ele>
        <time>2015-06-15T09:55:31.000Z</time>
      </trkpt>
      <trkpt lat="48.69847" lon="1.73511">
        <ele>169</ele>
        <time>2015-06-15T09:55:37.000Z</time>
      </trkpt>
      <trkpt lat="48.69845" lon="1.73516">
        <ele>169</ele>
        <time>2015-06-15T09:55:39.000Z</time>
      </trkpt>
      <trkpt lat="48.69842" lon="1.73525">
        <ele>169</ele>
        <time>2015-06-15T09:55:45.000Z</time>
      </trkpt>
      <trkpt lat="48.69838" lon="1.73536">
        <ele>169</ele>
        <time>2015-06-15T09:55:50.000Z</time>
      </trkpt>
      <trkpt lat="48.69832" lon="1.73551">
        <ele>169</ele>
        <time>2015-06-15T09:55:56.000Z</time>
      </trkpt>
      <trkpt lat="48.69825" lon="1.73561">
        <ele>169</ele>
        <time>2015-06-15T09:56:01.000Z</time>
      </trkpt>
      <trkpt lat="48.69818" lon="1.73575">
        <ele>169</ele>
        <time>2015-06-15T09:56:07.000Z</time>
      </trkpt>
      <trkpt lat="48.69817" lon="1.73579">
        <ele>169</ele>
        <time>2015-06-15T09:56:10.000Z</time>
      </trkpt>
      <trkpt lat="48.69811" lon="1.73594">
        <ele>169</ele>
        <time>2015-06-15T09:56:15.000Z</time>
      </trkpt>
      <trkpt lat="48.69801" lon="1.7361">
        <ele>169</ele>
        <time>2015-06-15T09:56:21.000Z</time>
      </trkpt>
      <trkpt lat="48.69795" lon="1.7362">
        <ele>168.8</ele>
        <time>2015-06-15T09:56:26.000Z</time>
      </trkpt>
      <trkpt lat="48.6979" lon="1.73633">
        <ele>168.7</ele>
        <time>2015-06-15T09:56:33.000Z</time>
      </trkpt>
      <trkpt lat="48.69789" lon="1.73634">
        <ele>168.7</ele>
        <time>2015-06-15T09:56:34.000Z</time>
      </trkpt>
      <trkpt lat="48.69787" lon="1.73645">
        <ele>168.7</ele>
        <time>2015-06-15T09:56:38.000Z</time>
      </trkpt>
      <trkpt lat="48.69786" lon="1.73651">
        <ele>168.7</ele>
        <time>2015-06-15T09:56:41.000Z</time>
      </trkpt>
      <trkpt lat="48.69779" lon="1.73658">
        <ele>168.9</ele>
        <time>2015-06-15T09:56:47.000Z</time>
      </trkpt>
      <trkpt lat="48.69775" lon="1.73666">
        <ele>169</ele>
        <time>2015-06-15T09:56:52.000Z</time>
      </trkpt>
      <trkpt lat="48.69774" lon="1.73671">
        <ele>169</ele>
        <time>2015-06-15T09:56:55.000Z</time>
      </trkpt>
      <trkpt lat="48.69773" lon="1.73675">
        <ele>169</ele>
        <time>2015-06-15T09:56:57.000Z</time>
      </trkpt>
      <trkpt lat="48.69769" lon="1.73685">
        <ele>169</ele>
        <time>2015-06-15T09:57:04.000Z</time>
      </trkpt>
      <trkpt lat="48.69763" lon="1.73697">
        <ele>169</ele>
        <time>2015-06-15T09:57:11.000Z</time>
      </trkpt>
      <trkpt lat="48.6976" lon="1.737">
        <ele>168.9</ele>
        <time>2015-06-15T09:57:13.000Z</time>
      </trkpt>
      <trkpt lat="48.69754" lon="1.73714">
        <ele>168.9</ele>
        <time>2015-06-15T09:57:21.000Z</time>
      </trkpt>
      <trkpt lat="48.6975" lon="1.73722">
        <ele>169</ele>
        <time>2015-06-15T09:57:25.000Z</time>
      </trkpt>
      <trkpt lat="48.69746" lon="1.73728">
        <ele>169</ele>
        <time>2015-06-15T09:57:28.000Z</time>
      </trkpt>
      <trkpt lat="48.69739" lon="1.73736">
        <ele>169</ele>
        <time>2015-06-15T09:57:34.000Z</time>
      </trkpt>
      <trkpt lat="48.69733" lon="1.73759">
        <ele>169</ele>
        <time>2015-06-15T09:57:44.000Z</time>
      </trkpt>
      <trkpt lat="48.69728" lon="1.73766">
        <ele>169</ele>
        <time>2015-06-15T09:57:49.000Z</time>
      </trkpt>
      <trkpt lat="48.69725" lon="1.73771">
        <ele>169</ele>
        <time>2015-06-15T09:57:52.000Z</time>
      </trkpt>
      <trkpt lat="48.69719" lon="1.7378">
        <ele>169</ele>
        <time>2015-06-15T09:57:58.000Z</time>
      </trkpt>
      <trkpt lat="48.69718" lon="1.73783">
        <ele>169</ele>
        <time>2015-06-15T09:57:59.000Z</time>
      </trkpt>
      <trkpt lat="48.69707" lon="1.73803">
        <ele>169</ele>
        <time>2015-06-15T09:58:09.000Z</time>
      </trkpt>
      <trkpt lat="48.69702" lon="1.73812">
        <ele>168.8</ele>
        <time>2015-06-15T09:58:15.000Z</time>
      </trkpt>
      <trkpt lat="48.69693" lon="1.73832">
        <ele>168.1</ele>
        <time>2015-06-15T09:58:23.000Z</time>
      </trkpt>
      <trkpt lat="48.69685" lon="1.73848">
        <ele>168.2</ele>
        <time>2015-06-15T09:58:31.000Z</time>
      </trkpt>
      <trkpt lat="48.69679" lon="1.7386">
        <ele>168</ele>
        <time>2015-06-15T09:58:37.000Z</time>
      </trkpt>
      <trkpt lat="48.69671" lon="1.73875">
        <ele>167.9</ele>
        <time>2015-06-15T09:58:44.000Z</time>
      </trkpt>
      <trkpt lat="48.69665" lon="1.73885">
        <ele>168.1</ele>
        <time>2015-06-15T09:58:51.000Z</time>
      </trkpt>
      <trkpt lat="48.69658" lon="1.73897">
        <ele>168.3</ele>
        <time>2015-06-15T09:58:58.000Z</time>
      </trkpt>
      <trkpt lat="48.69651" lon="1.73913">
        <ele>168.6</ele>
        <time>2015-06-15T09:59:05.000Z</time>
      </trkpt>
      <trkpt lat="48.69646" lon="1.73924">
        <ele>168.5</ele>
        <time>2015-06-15T09:59:12.000Z</time>
      </trkpt>
      <trkpt lat="48.69637" lon="1.73938">
        <ele>168.3</ele>
        <time>2015-06-15T09:59:18.000Z</time>
      </trkpt>
      <trkpt lat="48.69629" lon="1.73952">
        <ele>168.4</ele>
        <time>2015-06-15T09:59:22.000Z</time>
      </trkpt>
      <trkpt lat="48.69619" lon="1.73973">
        <ele>168.7</ele>
        <time>2015-06-15T09:59:27.000Z</time>
      </trkpt>
      <trkpt lat="48.69618" lon="1.73977">
        <ele>168.8</ele>
        <time>2015-06-15T09:59:28.000Z</time>
      </trkpt>
      <trkpt lat="48.69621" lon="1.74012">
        <ele>168.6</ele>
        <time>2015-06-15T09:59:34.000Z</time>
      </trkpt>
      <trkpt lat="48.69625" lon="1.74039">
        <ele>168.5</ele>
        <time>2015-06-15T09:59:38.000Z</time>
      </trkpt>
      <trkpt lat="48.69629" lon="1.74056">
        <ele>168.4</ele>
        <time>2015-06-15T09:59:41.000Z</time>
      </trkpt>
      <trkpt lat="48.69631" lon="1.74069">
        <ele>168.3</ele>
        <time>2015-06-15T09:59:43.000Z</time>
      </trkpt>
      <trkpt lat="48.69641" lon="1.74094">
        <ele>167.9</ele>
        <time>2015-06-15T09:59:49.000Z</time>
      </trkpt>
      <trkpt lat="48.69646" lon="1.74119">
        <ele>167.7</ele>
        <time>2015-06-15T09:59:54.000Z</time>
      </trkpt>
      <trkpt lat="48.69652" lon="1.74145">
        <ele>167.4</ele>
        <time>2015-06-15T09:59:59.000Z</time>
      </trkpt>
      <trkpt lat="48.69657" lon="1.74169">
        <ele>166.6</ele>
        <time>2015-06-15T10:00:04.000Z</time>
      </trkpt>
      <trkpt lat="48.69665" lon="1.74194">
        <ele>165.1</ele>
        <time>2015-06-15T10:00:10.000Z</time>
      </trkpt>
      <trkpt lat="48.69668" lon="1.74203">
        <ele>164.7</ele>
        <time>2015-06-15T10:00:14.000Z</time>
      </trkpt>
      <trkpt lat="48.6967" lon="1.74208">
        <ele>164.4</ele>
        <time>2015-06-15T10:00:16.000Z</time>
      </trkpt>
      <trkpt lat="48.69674" lon="1.74225">
        <ele>163.7</ele>
        <time>2015-06-15T10:00:23.000Z</time>
      </trkpt>
      <trkpt lat="48.69678" lon="1.74232">
        <ele>163.4</ele>
        <time>2015-06-15T10:00:27.000Z</time>
      </trkpt>
      <trkpt lat="48.69681" lon="1.74243">
        <ele>163.1</ele>
        <time>2015-06-15T10:00:32.000Z</time>
      </trkpt>
      <trkpt lat="48.69681" lon="1.74252">
        <ele>162.9</ele>
        <time>2015-06-15T10:00:35.000Z</time>
      </trkpt>
      <trkpt lat="48.69683" lon="1.74259">
        <ele>162.5</ele>
        <time>2015-06-15T10:00:38.000Z</time>
      </trkpt>
      <trkpt lat="48.69687" lon="1.74268">
        <ele>161.8</ele>
        <time>2015-06-15T10:00:43.000Z</time>
      </trkpt>
      <trkpt lat="48.69696" lon="1.74281">
        <ele>160.9</ele>
        <time>2015-06-15T10:00:49.000Z</time>
      </trkpt>
      <trkpt lat="48.69697" lon="1.74286">
        <ele>160.7</ele>
        <time>2015-06-15T10:00:51.000Z</time>
      </trkpt>
      <trkpt lat="48.69701" lon="1.74296">
        <ele>160.3</ele>
        <time>2015-06-15T10:00:56.000Z</time>
      </trkpt>
      <trkpt lat="48.69705" lon="1.74302">
        <ele>160.1</ele>
        <time>2015-06-15T10:00:59.000Z</time>
      </trkpt>
      <trkpt lat="48.69707" lon="1.74319">
        <ele>159.8</ele>
        <time>2015-06-15T10:01:05.000Z</time>
      </trkpt>
      <trkpt lat="48.6971" lon="1.74325">
        <ele>159.6</ele>
        <time>2015-06-15T10:01:08.000Z</time>
      </trkpt>
      <trkpt lat="48.69713" lon="1.74341">
        <ele>159.1</ele>
        <time>2015-06-15T10:01:15.000Z</time>
      </trkpt>
      <trkpt lat="48.69715" lon="1.74347">
        <ele>158.7</ele>
        <time>2015-06-15T10:01:18.000Z</time>
      </trkpt>
      <trkpt lat="48.69716" lon="1.74364">
        <ele>158.1</ele>
        <time>2015-06-15T10:01:24.000Z</time>
      </trkpt>
      <trkpt lat="48.69715" lon="1.74375">
        <ele>157.8</ele>
        <time>2015-06-15T10:01:29.000Z</time>
      </trkpt>
      <trkpt lat="48.69716" lon="1.74379">
        <ele>157.6</ele>
        <time>2015-06-15T10:01:31.000Z</time>
      </trkpt>
      <trkpt lat="48.69718" lon="1.74394">
        <ele>157</ele>
        <time>2015-06-15T10:01:37.000Z</time>
      </trkpt>
      <trkpt lat="48.69722" lon="1.74407">
        <ele>156.4</ele>
        <time>2015-06-15T10:01:42.000Z</time>
      </trkpt>
      <trkpt lat="48.69724" lon="1.74412">
        <ele>156.2</ele>
        <time>2015-06-15T10:01:44.000Z</time>
      </trkpt>
      <trkpt lat="48.69727" lon="1.74429">
        <ele>155.9</ele>
        <time>2015-06-15T10:01:51.000Z</time>
      </trkpt>
      <trkpt lat="48.69728" lon="1.74442">
        <ele>155.8</ele>
        <time>2015-06-15T10:01:57.000Z</time>
      </trkpt>
      <trkpt lat="48.69729" lon="1.74458">
        <ele>155.4</ele>
        <time>2015-06-15T10:02:04.000Z</time>
      </trkpt>
      <trkpt lat="48.69732" lon="1.74471">
        <ele>155</ele>
        <time>2015-06-15T10:02:11.000Z</time>
      </trkpt>
      <trkpt lat="48.69737" lon="1.74483">
        <ele>155</ele>
        <time>2015-06-15T10:02:17.000Z</time>
      </trkpt>
      <trkpt lat="48.69742" lon="1.74498">
        <ele>155</ele>
        <time>2015-06-15T10:02:24.000Z</time>
      </trkpt>
      <trkpt lat="48.69745" lon="1.74508">
        <ele>155</ele>
        <time>2015-06-15T10:02:30.000Z</time>
      </trkpt>
      <trkpt lat="48.69747" lon="1.7452">
        <ele>155</ele>
        <time>2015-06-15T10:02:36.000Z</time>
      </trkpt>
      <trkpt lat="48.69751" lon="1.74534">
        <ele>155.2</ele>
        <time>2015-06-15T10:02:42.000Z</time>
      </trkpt>
      <trkpt lat="48.69751" lon="1.74548">
        <ele>155.8</ele>
        <time>2015-06-15T10:02:48.000Z</time>
      </trkpt>
      <trkpt lat="48.69754" lon="1.74559">
        <ele>156.3</ele>
        <time>2015-06-15T10:02:54.000Z</time>
      </trkpt>
      <trkpt lat="48.69754" lon="1.74561">
        <ele>156.3</ele>
        <time>2015-06-15T10:02:55.000Z</time>
      </trkpt>
      <trkpt lat="48.69755" lon="1.74565">
        <ele>156.5</ele>
        <time>2015-06-15T10:02:58.000Z</time>
      </trkpt>
      <trkpt lat="48.69757" lon="1.74579">
        <ele>157.1</ele>
        <time>2015-06-15T10:03:05.000Z</time>
      </trkpt>
      <trkpt lat="48.69758" lon="1.74581">
        <ele>157.2</ele>
        <time>2015-06-15T10:03:06.000Z</time>
      </trkpt>
      <trkpt lat="48.69761" lon="1.74592">
        <ele>157.7</ele>
        <time>2015-06-15T10:03:12.000Z</time>
      </trkpt>
      <trkpt lat="48.69764" lon="1.74599">
        <ele>158.1</ele>
        <time>2015-06-15T10:03:17.000Z</time>
      </trkpt>
      <trkpt lat="48.69766" lon="1.74604">
        <ele>158.3</ele>
        <time>2015-06-15T10:03:19.000Z</time>
      </trkpt>
      <trkpt lat="48.69772" lon="1.74616">
        <ele>159</ele>
        <time>2015-06-15T10:03:27.000Z</time>
      </trkpt>
      <trkpt lat="48.69775" lon="1.7463">
        <ele>159.6</ele>
        <time>2015-06-15T10:03:35.000Z</time>
      </trkpt>
      <trkpt lat="48.69778" lon="1.74644">
        <ele>160.2</ele>
        <time>2015-06-15T10:03:42.000Z</time>
      </trkpt>
      <trkpt lat="48.69782" lon="1.74657">
        <ele>160.8</ele>
        <time>2015-06-15T10:03:49.000Z</time>
      </trkpt>
      <trkpt lat="48.69786" lon="1.74671">
        <ele>161.3</ele>
        <time>2015-06-15T10:03:56.000Z</time>
      </trkpt>
      <trkpt lat="48.69787" lon="1.74681">
        <ele>161.5</ele>
        <time>2015-06-15T10:04:00.000Z</time>
      </trkpt>
      <trkpt lat="48.6979" lon="1.74695">
        <ele>161.9</ele>
        <time>2015-06-15T10:04:07.000Z</time>
      </trkpt>
      <trkpt lat="48.69792" lon="1.74704">
        <ele>162.2</ele>
        <time>2015-06-15T10:04:12.000Z</time>
      </trkpt>
      <trkpt lat="48.69796" lon="1.74715">
        <ele>162.5</ele>
        <time>2015-06-15T10:04:18.000Z</time>
      </trkpt>
      <trkpt lat="48.69797" lon="1.74725">
        <ele>162.7</ele>
        <time>2015-06-15T10:04:23.000Z</time>
      </trkpt>
      <trkpt lat="48.69797" lon="1.74729">
        <ele>162.7</ele>
        <time>2015-06-15T10:04:25.000Z</time>
      </trkpt>
      <trkpt lat="48.69798" lon="1.74733">
        <ele>162.7</ele>
        <time>2015-06-15T10:04:27.000Z</time>
      </trkpt>
      <trkpt lat="48.69799" lon="1.74746">
        <ele>162.8</ele>
        <time>2015-06-15T10:04:33.000Z</time>
      </trkpt>
      <trkpt lat="48.698" lon="1.7475">
        <ele>162.8</ele>
        <time>2015-06-15T10:04:35.000Z</time>
      </trkpt>
      <trkpt lat="48.69802" lon="1.74762">
        <ele>163.2</ele>
        <time>2015-06-15T10:04:40.000Z</time>
      </trkpt>
      <trkpt lat="48.69807" lon="1.74774">
        <ele>163.9</ele>
        <time>2015-06-15T10:04:47.000Z</time>
      </trkpt>
      <trkpt lat="48.69809" lon="1.74787">
        <ele>164.1</ele>
        <time>2015-06-15T10:04:53.000Z</time>
      </trkpt>
      <trkpt lat="48.6981" lon="1.74791">
        <ele>164.2</ele>
        <time>2015-06-15T10:04:55.000Z</time>
      </trkpt>
      <trkpt lat="48.69811" lon="1.74799">
        <ele>164.2</ele>
        <time>2015-06-15T10:04:59.000Z</time>
      </trkpt>
      <trkpt lat="48.69814" lon="1.74811">
        <ele>164.4</ele>
        <time>2015-06-15T10:05:05.000Z</time>
      </trkpt>
      <trkpt lat="48.69815" lon="1.74818">
        <ele>164.5</ele>
        <time>2015-06-15T10:05:09.000Z</time>
      </trkpt>
      <trkpt lat="48.69818" lon="1.74829">
        <ele>164.8</ele>
        <time>2015-06-15T10:05:15.000Z</time>
      </trkpt>
      <trkpt lat="48.69819" lon="1.74833">
        <ele>165</ele>
        <time>2015-06-15T10:05:19.000Z</time>
      </trkpt>
      <trkpt lat="48.69823" lon="1.74839">
        <ele>165.2</ele>
        <time>2015-06-15T10:05:27.000Z</time>
      </trkpt>
      <trkpt lat="48.69824" lon="1.7485">
        <ele>165.4</ele>
        <time>2015-06-15T10:05:31.000Z</time>
      </trkpt>
      <trkpt lat="48.69829" lon="1.74861">
        <ele>165.7</ele>
        <time>2015-06-15T10:05:36.000Z</time>
      </trkpt>
      <trkpt lat="48.69829" lon="1.74876">
        <ele>165.7</ele>
        <time>2015-06-15T10:05:42.000Z</time>
      </trkpt>
      <trkpt lat="48.69824" lon="1.74881">
        <ele>165.3</ele>
        <time>2015-06-15T10:05:44.000Z</time>
      </trkpt>
      <trkpt lat="48.69811" lon="1.74895">
        <ele>164.4</ele>
        <time>2015-06-15T10:05:51.000Z</time>
      </trkpt>
      <trkpt lat="48.69809" lon="1.74906">
        <ele>164.2</ele>
        <time>2015-06-15T10:05:56.000Z</time>
      </trkpt>
      <trkpt lat="48.6981" lon="1.7491">
        <ele>164.3</ele>
        <time>2015-06-15T10:05:58.000Z</time>
      </trkpt>
      <trkpt lat="48.69815" lon="1.74923">
        <ele>164.7</ele>
        <time>2015-06-15T10:06:05.000Z</time>
      </trkpt>
      <trkpt lat="48.69815" lon="1.74925">
        <ele>164.7</ele>
        <time>2015-06-15T10:06:06.000Z</time>
      </trkpt>
      <trkpt lat="48.69819" lon="1.74937">
        <ele>165</ele>
        <time>2015-06-15T10:06:12.000Z</time>
      </trkpt>
      <trkpt lat="48.69821" lon="1.74942">
        <ele>165.1</ele>
        <time>2015-06-15T10:06:15.000Z</time>
      </trkpt>
      <trkpt lat="48.69827" lon="1.74955">
        <ele>165.5</ele>
        <time>2015-06-15T10:06:23.000Z</time>
      </trkpt>
      <trkpt lat="48.69829" lon="1.74961">
        <ele>165.7</ele>
        <time>2015-06-15T10:06:27.000Z</time>
      </trkpt>
      <trkpt lat="48.69831" lon="1.7497">
        <ele>165.9</ele>
        <time>2015-06-15T10:06:32.000Z</time>
      </trkpt>
      <trkpt lat="48.69831" lon="1.74975">
        <ele>165.8</ele>
        <time>2015-06-15T10:06:34.000Z</time>
      </trkpt>
      <trkpt lat="48.6983" lon="1.74988">
        <ele>165.7</ele>
        <time>2015-06-15T10:06:40.000Z</time>
      </trkpt>
      <trkpt lat="48.6983" lon="1.74998">
        <ele>165.7</ele>
        <time>2015-06-15T10:06:44.000Z</time>
      </trkpt>
      <trkpt lat="48.69831" lon="1.75005">
        <ele>165.9</ele>
        <time>2015-06-15T10:06:47.000Z</time>
      </trkpt>
      <trkpt lat="48.69831" lon="1.75014">
        <ele>165.8</ele>
        <time>2015-06-15T10:06:52.000Z</time>
      </trkpt>
      <trkpt lat="48.69833" lon="1.75017">
        <ele>166</ele>
        <time>2015-06-15T10:06:54.000Z</time>
      </trkpt>
      <trkpt lat="48.69837" lon="1.75029">
        <ele>166.3</ele>
        <time>2015-06-15T10:07:00.000Z</time>
      </trkpt>
      <trkpt lat="48.6984" lon="1.75037">
        <ele>166.4</ele>
        <time>2015-06-15T10:07:04.000Z</time>
      </trkpt>
      <trkpt lat="48.69841" lon="1.75054">
        <ele>166.3</ele>
        <time>2015-06-15T10:07:13.000Z</time>
      </trkpt>
      <trkpt lat="48.69842" lon="1.75065">
        <ele>166.3</ele>
        <time>2015-06-15T10:07:18.000Z</time>
      </trkpt>
      <trkpt lat="48.69843" lon="1.75073">
        <ele>166.3</ele>
        <time>2015-06-15T10:07:23.000Z</time>
      </trkpt>
      <trkpt lat="48.69846" lon="1.75083">
        <ele>166.5</ele>
        <time>2015-06-15T10:07:28.000Z</time>
      </trkpt>
      <trkpt lat="48.69846" lon="1.75086">
        <ele>166.5</ele>
        <time>2015-06-15T10:07:29.000Z</time>
      </trkpt>
      <trkpt lat="48.69851" lon="1.75098">
        <ele>166.6</ele>
        <time>2015-06-15T10:07:35.000Z</time>
      </trkpt>
      <trkpt lat="48.69855" lon="1.75109">
        <ele>166.8</ele>
        <time>2015-06-15T10:07:40.000Z</time>
      </trkpt>
      <trkpt lat="48.69857" lon="1.75126">
        <ele>166.9</ele>
        <time>2015-06-15T10:07:47.000Z</time>
      </trkpt>
      <trkpt lat="48.69859" lon="1.75141">
        <ele>166.8</ele>
        <time>2015-06-15T10:07:53.000Z</time>
      </trkpt>
      <trkpt lat="48.69858" lon="1.75156">
        <ele>166.3</ele>
        <time>2015-06-15T10:07:58.000Z</time>
      </trkpt>
      <trkpt lat="48.69859" lon="1.75167">
        <ele>166</ele>
        <time>2015-06-15T10:08:03.000Z</time>
      </trkpt>
      <trkpt lat="48.69864" lon="1.75183">
        <ele>166</ele>
        <time>2015-06-15T10:08:11.000Z</time>
      </trkpt>
      <trkpt lat="48.69868" lon="1.75197">
        <ele>166</ele>
        <time>2015-06-15T10:08:18.000Z</time>
      </trkpt>
      <trkpt lat="48.69868" lon="1.75208">
        <ele>166</ele>
        <time>2015-06-15T10:08:23.000Z</time>
      </trkpt>
      <trkpt lat="48.69869" lon="1.75212">
        <ele>166</ele>
        <time>2015-06-15T10:08:25.000Z</time>
      </trkpt>
      <trkpt lat="48.69871" lon="1.75222">
        <ele>166</ele>
        <time>2015-06-15T10:08:31.000Z</time>
      </trkpt>
      <trkpt lat="48.69872" lon="1.75237">
        <ele>165.7</ele>
        <time>2015-06-15T10:08:37.000Z</time>
      </trkpt>
      <trkpt lat="48.69875" lon="1.75252">
        <ele>165.5</ele>
        <time>2015-06-15T10:08:43.000Z</time>
      </trkpt>
      <trkpt lat="48.69876" lon="1.7527">
        <ele>165.5</ele>
        <time>2015-06-15T10:08:50.000Z</time>
      </trkpt>
      <trkpt lat="48.69877" lon="1.75272">
        <ele>165.6</ele>
        <time>2015-06-15T10:08:51.000Z</time>
      </trkpt>
      <trkpt lat="48.69879" lon="1.75278">
        <ele>165.6</ele>
        <time>2015-06-15T10:08:54.000Z</time>
      </trkpt>
      <trkpt lat="48.69884" lon="1.75295">
        <ele>165.3</ele>
        <time>2015-06-15T10:09:02.000Z</time>
      </trkpt>
      <trkpt lat="48.69884" lon="1.75315">
        <ele>164.9</ele>
        <time>2015-06-15T10:09:10.000Z</time>
      </trkpt>
      <trkpt lat="48.69884" lon="1.75332">
        <ele>164.8</ele>
        <time>2015-06-15T10:09:17.000Z</time>
      </trkpt>
      <trkpt lat="48.69883" lon="1.75336">
        <ele>164.7</ele>
        <time>2015-06-15T10:09:19.000Z</time>
      </trkpt>
      <trkpt lat="48.69884" lon="1.75356">
        <ele>164.1</ele>
        <time>2015-06-15T10:09:27.000Z</time>
      </trkpt>
      <trkpt lat="48.69887" lon="1.7537">
        <ele>164</ele>
        <time>2015-06-15T10:09:33.000Z</time>
      </trkpt>
      <trkpt lat="48.6989" lon="1.75377">
        <ele>164</ele>
        <time>2015-06-15T10:09:37.000Z</time>
      </trkpt>
      <trkpt lat="48.69892" lon="1.75383">
        <ele>163.9</ele>
        <time>2015-06-15T10:09:40.000Z</time>
      </trkpt>
      <trkpt lat="48.69899" lon="1.75388">
        <ele>163.7</ele>
        <time>2015-06-15T10:09:46.000Z</time>
      </trkpt>
      <trkpt lat="48.69911" lon="1.75386">
        <ele>163.3</ele>
        <time>2015-06-15T10:09:55.000Z</time>
      </trkpt>
      <trkpt lat="48.6992" lon="1.7538">
        <ele>163.2</ele>
        <time>2015-06-15T10:10:02.000Z</time>
      </trkpt>
      <trkpt lat="48.6993" lon="1.75377">
        <ele>162.9</ele>
        <time>2015-06-15T10:10:08.000Z</time>
      </trkpt>
      <trkpt lat="48.69941" lon="1.7537">
        <ele>162.8</ele>
        <time>2015-06-15T10:10:15.000Z</time>
      </trkpt>
      <trkpt lat="48.6995" lon="1.75365">
        <ele>162.7</ele>
        <time>2015-06-15T10:10:20.000Z</time>
      </trkpt>
      <trkpt lat="48.69959" lon="1.75361">
        <ele>162.5</ele>
        <time>2015-06-15T10:10:28.000Z</time>
      </trkpt>
      <trkpt lat="48.69968" lon="1.75356">
        <ele>162.3</ele>
        <time>2015-06-15T10:10:34.000Z</time>
      </trkpt>
      <trkpt lat="48.69977" lon="1.75353">
        <ele>162.3</ele>
        <time>2015-06-15T10:10:39.000Z</time>
      </trkpt>
      <trkpt lat="48.69984" lon="1.75351">
        <ele>162.4</ele>
        <time>2015-06-15T10:10:44.000Z</time>
      </trkpt>
      <trkpt lat="48.69991" lon="1.75349">
        <ele>162.4</ele>
        <time>2015-06-15T10:10:49.000Z</time>
      </trkpt>
      <trkpt lat="48.70005" lon="1.75341">
        <ele>162.7</ele>
        <time>2015-06-15T10:10:56.000Z</time>
      </trkpt>
      <trkpt lat="48.70012" lon="1.75337">
        <ele>162.9</ele>
        <time>2015-06-15T10:11:01.000Z</time>
      </trkpt>
      <trkpt lat="48.70017" lon="1.75332">
        <ele>163</ele>
        <time>2015-06-15T10:11:06.000Z</time>
      </trkpt>
      <trkpt lat="48.70023" lon="1.75329">
        <ele>163.1</ele>
        <time>2015-06-15T10:11:11.000Z</time>
      </trkpt>
      <trkpt lat="48.70027" lon="1.75324">
        <ele>163.3</ele>
        <time>2015-06-15T10:11:16.000Z</time>
      </trkpt>
      <trkpt lat="48.70033" lon="1.7532">
        <ele>163.7</ele>
        <time>2015-06-15T10:11:21.000Z</time>
      </trkpt>
      <trkpt lat="48.70038" lon="1.7532">
        <ele>163.8</ele>
        <time>2015-06-15T10:11:24.000Z</time>
      </trkpt>
      <trkpt lat="48.70043" lon="1.75321">
        <ele>164</ele>
        <time>2015-06-15T10:11:28.000Z</time>
      </trkpt>
      <trkpt lat="48.70048" lon="1.75314">
        <ele>164.4</ele>
        <time>2015-06-15T10:11:32.000Z</time>
      </trkpt>
      <trkpt lat="48.70057" lon="1.75308">
        <ele>165</ele>
        <time>2015-06-15T10:11:38.000Z</time>
      </trkpt>
      <trkpt lat="48.70066" lon="1.753">
        <ele>165.4</ele>
        <time>2015-06-15T10:11:45.000Z</time>
      </trkpt>
      <trkpt lat="48.70073" lon="1.75291">
        <ele>165.6</ele>
        <time>2015-06-15T10:11:52.000Z</time>
      </trkpt>
      <trkpt lat="48.70082" lon="1.75285">
        <ele>165.9</ele>
        <time>2015-06-15T10:11:58.000Z</time>
      </trkpt>
      <trkpt lat="48.70094" lon="1.75284">
        <ele>166.4</ele>
        <time>2015-06-15T10:12:05.000Z</time>
      </trkpt>
      <trkpt lat="48.70104" lon="1.75282">
        <ele>166.8</ele>
        <time>2015-06-15T10:12:13.000Z</time>
      </trkpt>
      <trkpt lat="48.7011" lon="1.75276">
        <ele>166.9</ele>
        <time>2015-06-15T10:12:19.000Z</time>
      </trkpt>
      <trkpt lat="48.70117" lon="1.75273">
        <ele>167.2</ele>
        <time>2015-06-15T10:12:24.000Z</time>
      </trkpt>
      <trkpt lat="48.70125" lon="1.75272">
        <ele>167.5</ele>
        <time>2015-06-15T10:12:31.000Z</time>
      </trkpt>
      <trkpt lat="48.70131" lon="1.75268">
        <ele>167.7</ele>
        <time>2015-06-15T10:12:36.000Z</time>
      </trkpt>
      <trkpt lat="48.70133" lon="1.75267">
        <ele>167.8</ele>
        <time>2015-06-15T10:12:37.000Z</time>
      </trkpt>
      <trkpt lat="48.70141" lon="1.75265">
        <ele>168.1</ele>
        <time>2015-06-15T10:12:43.000Z</time>
      </trkpt>
      <trkpt lat="48.70147" lon="1.75267">
        <ele>168.3</ele>
        <time>2015-06-15T10:12:47.000Z</time>
      </trkpt>
      <trkpt lat="48.70153" lon="1.75263">
        <ele>168.5</ele>
        <time>2015-06-15T10:12:53.000Z</time>
      </trkpt>
      <trkpt lat="48.70156" lon="1.75262">
        <ele>168.6</ele>
        <time>2015-06-15T10:12:56.000Z</time>
      </trkpt>
      <trkpt lat="48.70159" lon="1.75258">
        <ele>168.7</ele>
        <time>2015-06-15T10:13:01.000Z</time>
      </trkpt>
      <trkpt lat="48.7016" lon="1.75257">
        <ele>168.8</ele>
        <time>2015-06-15T10:13:04.000Z</time>
      </trkpt>
      <trkpt lat="48.70166" lon="1.75257">
        <ele>169</ele>
        <time>2015-06-15T10:13:17.000Z</time>
      </trkpt>
      <trkpt lat="48.7017" lon="1.75255">
        <ele>169</ele>
        <time>2015-06-15T10:13:19.000Z</time>
      </trkpt>
      <trkpt lat="48.70178" lon="1.75252">
        <ele>169</ele>
        <time>2015-06-15T10:13:25.000Z</time>
      </trkpt>
      <trkpt lat="48.70187" lon="1.75247">
        <ele>168.9</ele>
        <time>2015-06-15T10:13:31.000Z</time>
      </trkpt>
      <trkpt lat="48.70193" lon="1.75243">
        <ele>168.7</ele>
        <time>2015-06-15T10:13:37.000Z</time>
      </trkpt>
      <trkpt lat="48.702" lon="1.75238">
        <ele>168.7</ele>
        <time>2015-06-15T10:13:43.000Z</time>
      </trkpt>
      <trkpt lat="48.70201" lon="1.75238">
        <ele>168.7</ele>
        <time>2015-06-15T10:13:44.000Z</time>
      </trkpt>
      <trkpt lat="48.70209" lon="1.75239">
        <ele>168.8</ele>
        <time>2015-06-15T10:13:49.000Z</time>
      </trkpt>
      <trkpt lat="48.70225" lon="1.75244">
        <ele>169</ele>
        <time>2015-06-15T10:13:59.000Z</time>
      </trkpt>
      <trkpt lat="48.70235" lon="1.75246">
        <ele>169</ele>
        <time>2015-06-15T10:14:05.000Z</time>
      </trkpt>
      <trkpt lat="48.70238" lon="1.75246">
        <ele>169</ele>
        <time>2015-06-15T10:14:07.000Z</time>
      </trkpt>
      <trkpt lat="48.7025" lon="1.75252">
        <ele>169.1</ele>
        <time>2015-06-15T10:14:13.000Z</time>
      </trkpt>
      <trkpt lat="48.70265" lon="1.75257">
        <ele>169.3</ele>
        <time>2015-06-15T10:14:20.000Z</time>
      </trkpt>
      <trkpt lat="48.70267" lon="1.75258">
        <ele>169.3</ele>
        <time>2015-06-15T10:14:21.000Z</time>
      </trkpt>
      <trkpt lat="48.70273" lon="1.75269">
        <ele>169.7</ele>
        <time>2015-06-15T10:14:27.000Z</time>
      </trkpt>
      <trkpt lat="48.70282" lon="1.75279">
        <ele>170</ele>
        <time>2015-06-15T10:14:34.000Z</time>
      </trkpt>
      <trkpt lat="48.7029" lon="1.75285">
        <ele>170</ele>
        <time>2015-06-15T10:14:40.000Z</time>
      </trkpt>
      <trkpt lat="48.70292" lon="1.75285">
        <ele>170</ele>
        <time>2015-06-15T10:14:43.000Z</time>
      </trkpt>
      <trkpt lat="48.70297" lon="1.75292">
        <ele>170</ele>
        <time>2015-06-15T10:14:48.000Z</time>
      </trkpt>
      <trkpt lat="48.70305" lon="1.75303">
        <ele>170</ele>
        <time>2015-06-15T10:14:54.000Z</time>
      </trkpt>
      <trkpt lat="48.70313" lon="1.75315">
        <ele>170.6</ele>
        <time>2015-06-15T10:15:00.000Z</time>
      </trkpt>
      <trkpt lat="48.70316" lon="1.75322">
        <ele>171</ele>
        <time>2015-06-15T10:15:03.000Z</time>
      </trkpt>
      <trkpt lat="48.70321" lon="1.75338">
        <ele>171.6</ele>
        <time>2015-06-15T10:15:10.000Z</time>
      </trkpt>
      <trkpt lat="48.70321" lon="1.7534">
        <ele>171.7</ele>
        <time>2015-06-15T10:15:11.000Z</time>
      </trkpt>
      <trkpt lat="48.7033" lon="1.75347">
        <ele>171.9</ele>
        <time>2015-06-15T10:15:17.000Z</time>
      </trkpt>
      <trkpt lat="48.70334" lon="1.75351">
        <ele>172</ele>
        <time>2015-06-15T10:15:21.000Z</time>
      </trkpt>
      <trkpt lat="48.70336" lon="1.75353">
        <ele>172.1</ele>
        <time>2015-06-15T10:15:23.000Z</time>
      </trkpt>
      <trkpt lat="48.70342" lon="1.75356">
        <ele>172.2</ele>
        <time>2015-06-15T10:15:27.000Z</time>
      </trkpt>
      <trkpt lat="48.70346" lon="1.75359">
        <ele>172.4</ele>
        <time>2015-06-15T10:15:30.000Z</time>
      </trkpt>
      <trkpt lat="48.70353" lon="1.75369">
        <ele>172.8</ele>
        <time>2015-06-15T10:15:37.000Z</time>
      </trkpt>
      <trkpt lat="48.70359" lon="1.75375">
        <ele>173</ele>
        <time>2015-06-15T10:15:42.000Z</time>
      </trkpt>
      <trkpt lat="48.70359" lon="1.75376">
        <ele>173</ele>
        <time>2015-06-15T10:15:43.000Z</time>
      </trkpt>
      <trkpt lat="48.70363" lon="1.75388">
        <ele>173</ele>
        <time>2015-06-15T10:15:51.000Z</time>
      </trkpt>
      <trkpt lat="48.70369" lon="1.75394">
        <ele>173</ele>
        <time>2015-06-15T10:15:58.000Z</time>
      </trkpt>
      <trkpt lat="48.70378" lon="1.754">
        <ele>173</ele>
        <time>2015-06-15T10:16:04.000Z</time>
      </trkpt>
      <trkpt lat="48.70383" lon="1.75403">
        <ele>173</ele>
        <time>2015-06-15T10:16:07.000Z</time>
      </trkpt>
      <trkpt lat="48.70389" lon="1.75411">
        <ele>173</ele>
        <time>2015-06-15T10:16:12.000Z</time>
      </trkpt>
      <trkpt lat="48.70391" lon="1.75412">
        <ele>173</ele>
        <time>2015-06-15T10:16:15.000Z</time>
      </trkpt>
      <trkpt lat="48.70396" lon="1.75414">
        <ele>173</ele>
        <time>2015-06-15T10:16:21.000Z</time>
      </trkpt>
      <trkpt lat="48.70403" lon="1.75415">
        <ele>173</ele>
        <time>2015-06-15T10:16:27.000Z</time>
      </trkpt>
      <trkpt lat="48.70409" lon="1.75419">
        <ele>173</ele>
        <time>2015-06-15T10:16:32.000Z</time>
      </trkpt>
      <trkpt lat="48.70411" lon="1.75417">
        <ele>173</ele>
        <time>2015-06-15T10:16:38.000Z</time>
      </trkpt>
      <trkpt lat="48.70416" lon="1.7542">
        <ele>173</ele>
        <time>2015-06-15T10:16:43.000Z</time>
      </trkpt>
      <trkpt lat="48.70417" lon="1.75421">
        <ele>173</ele>
        <time>2015-06-15T10:16:44.000Z</time>
      </trkpt>
      <trkpt lat="48.70422" lon="1.75426">
        <ele>173.1</ele>
        <time>2015-06-15T10:16:48.000Z</time>
      </trkpt>
      <trkpt lat="48.70432" lon="1.75434">
        <ele>173.2</ele>
        <time>2015-06-15T10:16:57.000Z</time>
      </trkpt>
      <trkpt lat="48.70434" lon="1.75435">
        <ele>173.2</ele>
        <time>2015-06-15T10:16:58.000Z</time>
      </trkpt>
      <trkpt lat="48.70444" lon="1.75446">
        <ele>173</ele>
        <time>2015-06-15T10:17:06.000Z</time>
      </trkpt>
      <trkpt lat="48.70455" lon="1.7545">
        <ele>173.4</ele>
        <time>2015-06-15T10:17:11.000Z</time>
      </trkpt>
      <trkpt lat="48.7046" lon="1.75455">
        <ele>173.5</ele>
        <time>2015-06-15T10:17:15.000Z</time>
      </trkpt>
      <trkpt lat="48.70466" lon="1.75461">
        <ele>173.8</ele>
        <time>2015-06-15T10:17:21.000Z</time>
      </trkpt>
      <trkpt lat="48.70473" lon="1.75468">
        <ele>174</ele>
        <time>2015-06-15T10:17:26.000Z</time>
      </trkpt>
      <trkpt lat="48.70476" lon="1.75473">
        <ele>174</ele>
        <time>2015-06-15T10:17:29.000Z</time>
      </trkpt>
      <trkpt lat="48.70484" lon="1.7548">
        <ele>173.7</ele>
        <time>2015-06-15T10:17:36.000Z</time>
      </trkpt>
      <trkpt lat="48.70486" lon="1.75484">
        <ele>173.6</ele>
        <time>2015-06-15T10:17:38.000Z</time>
      </trkpt>
      <trkpt lat="48.70495" lon="1.75491">
        <ele>173.3</ele>
        <time>2015-06-15T10:17:43.000Z</time>
      </trkpt>
      <trkpt lat="48.70501" lon="1.75498">
        <ele>173.1</ele>
        <time>2015-06-15T10:17:49.000Z</time>
      </trkpt>
      <trkpt lat="48.70512" lon="1.75502">
        <ele>173</ele>
        <time>2015-06-15T10:17:57.000Z</time>
      </trkpt>
      <trkpt lat="48.70515" lon="1.75503">
        <ele>173</ele>
        <time>2015-06-15T10:17:59.000Z</time>
      </trkpt>
      <trkpt lat="48.70526" lon="1.75515">
        <ele>173</ele>
        <time>2015-06-15T10:18:07.000Z</time>
      </trkpt>
      <trkpt lat="48.7053" lon="1.75518">
        <ele>173</ele>
        <time>2015-06-15T10:18:10.000Z</time>
      </trkpt>
      <trkpt lat="48.70538" lon="1.75523">
        <ele>173</ele>
        <time>2015-06-15T10:18:16.000Z</time>
      </trkpt>
      <trkpt lat="48.70545" lon="1.75537">
        <ele>173</ele>
        <time>2015-06-15T10:18:24.000Z</time>
      </trkpt>
      <trkpt lat="48.7055" lon="1.75546">
        <ele>173</ele>
        <time>2015-06-15T10:18:30.000Z</time>
      </trkpt>
      <trkpt lat="48.70552" lon="1.75549">
        <ele>173</ele>
        <time>2015-06-15T10:18:32.000Z</time>
      </trkpt>
      <trkpt lat="48.70556" lon="1.75555">
        <ele>173</ele>
        <time>2015-06-15T10:18:36.000Z</time>
      </trkpt>
      <trkpt lat="48.70562" lon="1.75561">
        <ele>173</ele>
        <time>2015-06-15T10:18:41.000Z</time>
      </trkpt>
      <trkpt lat="48.70569" lon="1.75568">
        <ele>173</ele>
        <time>2015-06-15T10:18:47.000Z</time>
      </trkpt>
      <trkpt lat="48.70572" lon="1.75574">
        <ele>173</ele>
        <time>2015-06-15T10:18:52.000Z</time>
      </trkpt>
      <trkpt lat="48.7058" lon="1.75578">
        <ele>173</ele>
        <time>2015-06-15T10:18:57.000Z</time>
      </trkpt>
      <trkpt lat="48.70587" lon="1.75586">
        <ele>172.9</ele>
        <time>2015-06-15T10:19:03.000Z</time>
      </trkpt>
      <trkpt lat="48.70593" lon="1.75594">
        <ele>172.7</ele>
        <time>2015-06-15T10:19:08.000Z</time>
      </trkpt>
      <trkpt lat="48.706" lon="1.75609">
        <ele>172.4</ele>
        <time>2015-06-15T10:19:17.000Z</time>
      </trkpt>
      <trkpt lat="48.70606" lon="1.7562">
        <ele>172.4</ele>
        <time>2015-06-15T10:19:23.000Z</time>
      </trkpt>
      <trkpt lat="48.7061" lon="1.75627">
        <ele>172.6</ele>
        <time>2015-06-15T10:19:27.000Z</time>
      </trkpt>
      <trkpt lat="48.70616" lon="1.75636">
        <ele>172.9</ele>
        <time>2015-06-15T10:19:33.000Z</time>
      </trkpt>
      <trkpt lat="48.70617" lon="1.75637">
        <ele>172.9</ele>
        <time>2015-06-15T10:19:34.000Z</time>
      </trkpt>
      <trkpt lat="48.7062" lon="1.75642">
        <ele>173</ele>
        <time>2015-06-15T10:19:37.000Z</time>
      </trkpt>
      <trkpt lat="48.70627" lon="1.75647">
        <ele>173</ele>
        <time>2015-06-15T10:19:41.000Z</time>
      </trkpt>
      <trkpt lat="48.70633" lon="1.75651">
        <ele>173</ele>
        <time>2015-06-15T10:19:46.000Z</time>
      </trkpt>
      <trkpt lat="48.70638" lon="1.75649">
        <ele>173</ele>
        <time>2015-06-15T10:19:50.000Z</time>
      </trkpt>
      <trkpt lat="48.70637" lon="1.75649">
        <ele>173</ele>
        <time>2015-06-15T10:20:00.000Z</time>
      </trkpt>
      <trkpt lat="48.70636" lon="1.75649">
        <ele>173</ele>
        <time>2015-06-15T10:20:04.000Z</time>
      </trkpt>
      <trkpt lat="48.70634" lon="1.75647">
        <ele>173</ele>
        <time>2015-06-15T10:20:10.000Z</time>
      </trkpt>
      <trkpt lat="48.70634" lon="1.75647">
        <ele>173</ele>
        <time>2015-06-15T10:20:13.000Z</time>
      </trkpt>
      <trkpt lat="48.70636" lon="1.75644">
        <ele>173</ele>
        <time>2015-06-15T10:20:41.000Z</time>
      </trkpt>
      <trkpt lat="48.70638" lon="1.75638">
        <ele>173</ele>
        <time>2015-06-15T10:20:43.000Z</time>
      </trkpt>
      <trkpt lat="48.70642" lon="1.75622">
        <ele>172.4</ele>
        <time>2015-06-15T10:20:50.000Z</time>
      </trkpt>
      <trkpt lat="48.70645" lon="1.75612">
        <ele>172.3</ele>
        <time>2015-06-15T10:20:56.000Z</time>
      </trkpt>
      <trkpt lat="48.70653" lon="1.756">
        <ele>172.5</ele>
        <time>2015-06-15T10:21:02.000Z</time>
      </trkpt>
      <trkpt lat="48.70655" lon="1.75593">
        <ele>172.6</ele>
        <time>2015-06-15T10:21:05.000Z</time>
      </trkpt>
      <trkpt lat="48.70658" lon="1.75588">
        <ele>172.7</ele>
        <time>2015-06-15T10:21:08.000Z</time>
      </trkpt>
      <trkpt lat="48.70661" lon="1.75581">
        <ele>172.8</ele>
        <time>2015-06-15T10:21:14.000Z</time>
      </trkpt>
      <trkpt lat="48.70665" lon="1.75572">
        <ele>173</ele>
        <time>2015-06-15T10:21:20.000Z</time>
      </trkpt>
      <trkpt lat="48.70668" lon="1.75566">
        <ele>173</ele>
        <time>2015-06-15T10:21:24.000Z</time>
      </trkpt>
      <trkpt lat="48.70675" lon="1.7555">
        <ele>173</ele>
        <time>2015-06-15T10:21:33.000Z</time>
      </trkpt>
      <trkpt lat="48.70684" lon="1.75532">
        <ele>173</ele>
        <time>2015-06-15T10:21:42.000Z</time>
      </trkpt>
      <trkpt lat="48.7069" lon="1.75518">
        <ele>173</ele>
        <time>2015-06-15T10:21:50.000Z</time>
      </trkpt>
      <trkpt lat="48.70697" lon="1.75501">
        <ele>173</ele>
        <time>2015-06-15T10:22:01.000Z</time>
      </trkpt>
      <trkpt lat="48.70698" lon="1.75499">
        <ele>173</ele>
        <time>2015-06-15T10:22:02.000Z</time>
      </trkpt>
      <trkpt lat="48.70699" lon="1.75496">
        <ele>173</ele>
        <time>2015-06-15T10:22:04.000Z</time>
      </trkpt>
    </trkseg>
  </trk>
</gpx>